<?xml version="1.0" encoding="UTF-8" standalone="no" ?>
<gpx xmlns="http://www.topografix.com/GPX/1/1" xmlns:xsi="http://www.w3.org/2001/XMLSchema-instance" xsi:schemaLocation="http://www.topografix.com/GPX/1/1 http://www.topografix.com/GPX/1/1/gpx.xsd" version="1.1" creator="VisuGPX - https://www.visugpx.com">
  <metadata>
    <name>Le cadeau du Caroux</name>
  </metadata>
  <wpt lat="43.57202" lon="2.98589">
    <ele>252</ele>
    <name><![CDATA[Parking]]></name>
  </wpt>
  <wpt lat="43.57552" lon="2.9854">
    <ele>313</ele>
    <name><![CDATA[Départ de sentier]]></name>
  </wpt>
  <wpt lat="43.58927" lon="2.99214">
    <ele>714</ele>
    <name><![CDATA[Cascade]]></name>
  </wpt>
  <wpt lat="43.59318" lon="2.9874">
    <ele>976</ele>
    <name><![CDATA[Sommet]]></name>
  </wpt>
  <wpt lat="43.60148" lon="2.98343">
    <ele>1040</ele>
    <name><![CDATA[Intersection - Passerelle en bois]]></name>
  </wpt>
  <wpt lat="43.60355" lon="2.98996">
    <ele>1059</ele>
    <name><![CDATA[Intersection]]></name>
  </wpt>
  <wpt lat="43.60624" lon="2.9822">
    <ele>1061</ele>
    <name><![CDATA[Intersection]]></name>
  </wpt>
  <wpt lat="43.60989" lon="2.96745">
    <ele>972</ele>
    <name><![CDATA[Bifurcation]]></name>
  </wpt>
  <wpt lat="43.61408" lon="2.96707">
    <ele>989</ele>
    <name><![CDATA[Col de Tirondel]]></name>
  </wpt>
  <wpt lat="43.6153" lon="2.96627">
    <ele>963</ele>
    <name><![CDATA[Chemin VTT à gauche]]></name>
  </wpt>
  <wpt lat="43.61223" lon="2.96286">
    <ele>932</ele>
    <name><![CDATA[Bifurcation vers le Col du Salis]]></name>
  </wpt>
  <wpt lat="43.5996" lon="2.95566">
    <ele>518</ele>
    <name><![CDATA[Héric]]></name>
  </wpt>
  <wpt lat="43.57253" lon="2.95652">
    <ele>286</ele>
    <name><![CDATA[À gauche après la maison]]></name>
  </wpt>
  <wpt lat="43.57327" lon="2.96722">
    <ele>197</ele>
    <name><![CDATA[Héric]]></name>
  </wpt>
  <wpt lat="43.57515" lon="2.96618">
    <ele>211</ele>
    <name><![CDATA[Mons]]></name>
  </wpt>
  <wpt lat="43.57204" lon="2.98588">
    <ele>252</ele>
    <name><![CDATA[Parking]]></name>
  </wpt>
  <trk>
    <name><![CDATA[Le cadeau du Caroux]]></name>
    <trkseg>
      <trkpt lat="43.57202" lon="2.98589">
        <ele>252</ele>
        <time>2021-03-31T08:18:59+02:00</time>
      </trkpt>
      <trkpt lat="43.57227" lon="2.98594">
        <ele>254</ele>
        <time>2021-03-31T08:19:21+02:00</time>
      </trkpt>
      <trkpt lat="43.57233" lon="2.98591">
        <ele>255</ele>
      </trkpt>
      <trkpt lat="43.5724" lon="2.98593">
        <ele>256</ele>
        <time>2021-03-31T08:20:39+02:00</time>
      </trkpt>
      <trkpt lat="43.57269" lon="2.98576">
        <ele>259</ele>
        <time>2021-03-31T08:24:16+02:00</time>
      </trkpt>
      <trkpt lat="43.57292" lon="2.9857">
        <ele>262</ele>
        <time>2021-03-31T08:24:33+02:00</time>
      </trkpt>
      <trkpt lat="43.57314" lon="2.9856">
        <ele>265</ele>
        <time>2021-03-31T08:24:54+02:00</time>
      </trkpt>
      <trkpt lat="43.57325" lon="2.98587">
        <ele>271</ele>
        <time>2021-03-31T08:26:35+02:00</time>
      </trkpt>
      <trkpt lat="43.57332" lon="2.98617">
        <ele>274</ele>
        <time>2021-03-31T08:26:53+02:00</time>
      </trkpt>
      <trkpt lat="43.57338" lon="2.98647">
        <ele>276</ele>
        <time>2021-03-31T08:27:12+02:00</time>
      </trkpt>
      <trkpt lat="43.57346" lon="2.98677">
        <ele>279</ele>
        <time>2021-03-31T08:27:33+02:00</time>
      </trkpt>
      <trkpt lat="43.57345" lon="2.98709">
        <ele>280</ele>
        <time>2021-03-31T08:27:52+02:00</time>
      </trkpt>
      <trkpt lat="43.57349" lon="2.9874">
        <ele>280</ele>
        <time>2021-03-31T08:28:12+02:00</time>
      </trkpt>
      <trkpt lat="43.57366" lon="2.98763">
        <ele>282</ele>
        <time>2021-03-31T08:28:31+02:00</time>
      </trkpt>
      <trkpt lat="43.57388" lon="2.98772">
        <ele>284</ele>
        <time>2021-03-31T08:28:51+02:00</time>
      </trkpt>
      <trkpt lat="43.57382" lon="2.9874">
        <ele>286</ele>
        <time>2021-03-31T08:29:17+02:00</time>
      </trkpt>
      <trkpt lat="43.57373" lon="2.98709">
        <ele>286</ele>
        <time>2021-03-31T08:29:34+02:00</time>
      </trkpt>
      <trkpt lat="43.57383" lon="2.98681">
        <ele>290</ele>
        <time>2021-03-31T08:29:49+02:00</time>
      </trkpt>
      <trkpt lat="43.57406" lon="2.9868">
        <ele>294</ele>
        <time>2021-03-31T08:30:09+02:00</time>
      </trkpt>
      <trkpt lat="43.57425" lon="2.98698">
        <ele>296</ele>
        <time>2021-03-31T08:30:26+02:00</time>
      </trkpt>
      <trkpt lat="43.57444" lon="2.98715">
        <ele>295</ele>
        <time>2021-03-31T08:30:45+02:00</time>
      </trkpt>
      <trkpt lat="43.57464" lon="2.98733">
        <ele>295</ele>
        <time>2021-03-31T08:31:05+02:00</time>
      </trkpt>
      <trkpt lat="43.57479" lon="2.98742">
        <ele>295</ele>
      </trkpt>
      <trkpt lat="43.57484" lon="2.98719">
        <ele>301</ele>
        <time>2021-03-31T08:31:43+02:00</time>
      </trkpt>
      <trkpt lat="43.57489" lon="2.98687">
        <ele>305</ele>
        <time>2021-03-31T08:32:17+02:00</time>
      </trkpt>
      <trkpt lat="43.57487" lon="2.98654">
        <ele>308</ele>
        <time>2021-03-31T08:32:38+02:00</time>
      </trkpt>
      <trkpt lat="43.57479" lon="2.98624">
        <ele>310</ele>
        <time>2021-03-31T08:33:28+02:00</time>
      </trkpt>
      <trkpt lat="43.57484" lon="2.98592">
        <ele>310</ele>
        <time>2021-03-31T08:33:46+02:00</time>
      </trkpt>
      <trkpt lat="43.57503" lon="2.98574">
        <ele>311</ele>
        <time>2021-03-31T08:34:04+02:00</time>
      </trkpt>
      <trkpt lat="43.57523" lon="2.98558">
        <ele>311</ele>
        <time>2021-03-31T08:34:23+02:00</time>
      </trkpt>
      <trkpt lat="43.57552" lon="2.9854">
        <ele>313</ele>
        <time>2021-03-31T08:34:42+02:00</time>
      </trkpt>
      <trkpt lat="43.57563" lon="2.98566">
        <ele>318</ele>
        <time>2021-03-31T08:35:25+02:00</time>
      </trkpt>
      <trkpt lat="43.57577" lon="2.9859">
        <ele>323</ele>
        <time>2021-03-31T08:35:50+02:00</time>
      </trkpt>
      <trkpt lat="43.57598" lon="2.98604">
        <ele>328</ele>
        <time>2021-03-31T08:36:12+02:00</time>
      </trkpt>
      <trkpt lat="43.57614" lon="2.98626">
        <ele>330</ele>
        <time>2021-03-31T08:36:37+02:00</time>
      </trkpt>
      <trkpt lat="43.5763" lon="2.9865">
        <ele>334</ele>
        <time>2021-03-31T08:36:58+02:00</time>
      </trkpt>
      <trkpt lat="43.57645" lon="2.98675">
        <ele>338</ele>
        <time>2021-03-31T08:37:34+02:00</time>
      </trkpt>
      <trkpt lat="43.57663" lon="2.98693">
        <ele>345</ele>
        <time>2021-03-31T08:37:55+02:00</time>
      </trkpt>
      <trkpt lat="43.57678" lon="2.98718">
        <ele>346</ele>
        <time>2021-03-31T08:38:20+02:00</time>
      </trkpt>
      <trkpt lat="43.57695" lon="2.98739">
        <ele>346</ele>
        <time>2021-03-31T08:38:50+02:00</time>
      </trkpt>
      <trkpt lat="43.57717" lon="2.98751">
        <ele>345</ele>
        <time>2021-03-31T08:39:18+02:00</time>
      </trkpt>
      <trkpt lat="43.5774" lon="2.98751">
        <ele>345</ele>
        <time>2021-03-31T08:39:36+02:00</time>
      </trkpt>
      <trkpt lat="43.57762" lon="2.98744">
        <ele>344</ele>
        <time>2021-03-31T08:40:04+02:00</time>
      </trkpt>
      <trkpt lat="43.57784" lon="2.98735">
        <ele>343</ele>
        <time>2021-03-31T08:40:22+02:00</time>
      </trkpt>
      <trkpt lat="43.57807" lon="2.98728">
        <ele>343</ele>
        <time>2021-03-31T08:40:42+02:00</time>
      </trkpt>
      <trkpt lat="43.57828" lon="2.9872">
        <ele>343</ele>
        <time>2021-03-31T08:41:05+02:00</time>
      </trkpt>
      <trkpt lat="43.57852" lon="2.98717">
        <ele>339</ele>
        <time>2021-03-31T08:41:46+02:00</time>
      </trkpt>
      <trkpt lat="43.57874" lon="2.98724">
        <ele>338</ele>
        <time>2021-03-31T08:42:21+02:00</time>
      </trkpt>
      <trkpt lat="43.57889" lon="2.98749">
        <ele>348</ele>
        <time>2021-03-31T08:42:57+02:00</time>
      </trkpt>
      <trkpt lat="43.57898" lon="2.9878">
        <ele>360</ele>
        <time>2021-03-31T08:43:38+02:00</time>
      </trkpt>
      <trkpt lat="43.57902" lon="2.98811">
        <ele>364</ele>
        <time>2021-03-31T08:44:13+02:00</time>
      </trkpt>
      <trkpt lat="43.57906" lon="2.98842">
        <ele>371</ele>
        <time>2021-03-31T08:44:52+02:00</time>
      </trkpt>
      <trkpt lat="43.57916" lon="2.98872">
        <ele>383</ele>
        <time>2021-03-31T08:46:01+02:00</time>
      </trkpt>
      <trkpt lat="43.57931" lon="2.98896">
        <ele>395</ele>
        <time>2021-03-31T08:46:58+02:00</time>
      </trkpt>
      <trkpt lat="43.57935" lon="2.98927">
        <ele>400</ele>
        <time>2021-03-31T08:47:25+02:00</time>
      </trkpt>
      <trkpt lat="43.57949" lon="2.98951">
        <ele>409</ele>
        <time>2021-03-31T08:47:53+02:00</time>
      </trkpt>
      <trkpt lat="43.57968" lon="2.98971">
        <ele>418</ele>
        <time>2021-03-31T08:49:18+02:00</time>
      </trkpt>
      <trkpt lat="43.57979" lon="2.98998">
        <ele>420</ele>
        <time>2021-03-31T08:50:42+02:00</time>
      </trkpt>
      <trkpt lat="43.57998" lon="2.99016">
        <ele>423</ele>
        <time>2021-03-31T08:51:53+02:00</time>
      </trkpt>
      <trkpt lat="43.58018" lon="2.9903">
        <ele>429</ele>
        <time>2021-03-31T08:52:18+02:00</time>
      </trkpt>
      <trkpt lat="43.5804" lon="2.99044">
        <ele>435</ele>
        <time>2021-03-31T08:52:41+02:00</time>
      </trkpt>
      <trkpt lat="43.58058" lon="2.99064">
        <ele>437</ele>
        <time>2021-03-31T08:53:17+02:00</time>
      </trkpt>
      <trkpt lat="43.58076" lon="2.99083">
        <ele>440</ele>
        <time>2021-03-31T08:54:26+02:00</time>
      </trkpt>
      <trkpt lat="43.58092" lon="2.99105">
        <ele>441</ele>
        <time>2021-03-31T08:54:58+02:00</time>
      </trkpt>
      <trkpt lat="43.58108" lon="2.99128">
        <ele>444</ele>
        <time>2021-03-31T08:55:33+02:00</time>
      </trkpt>
      <trkpt lat="43.58123" lon="2.99153">
        <ele>446</ele>
        <time>2021-03-31T08:56:41+02:00</time>
      </trkpt>
      <trkpt lat="43.5814" lon="2.99175">
        <ele>451</ele>
        <time>2021-03-31T08:57:02+02:00</time>
      </trkpt>
      <trkpt lat="43.58155" lon="2.99199">
        <ele>457</ele>
        <time>2021-03-31T08:57:30+02:00</time>
      </trkpt>
      <trkpt lat="43.58171" lon="2.99222">
        <ele>463</ele>
        <time>2021-03-31T08:58:12+02:00</time>
      </trkpt>
      <trkpt lat="43.58187" lon="2.99247">
        <ele>469</ele>
        <time>2021-03-31T08:59:24+02:00</time>
      </trkpt>
      <trkpt lat="43.58206" lon="2.99265">
        <ele>477</ele>
        <time>2021-03-31T09:00:32+02:00</time>
      </trkpt>
      <trkpt lat="43.58223" lon="2.99286">
        <ele>483</ele>
        <time>2021-03-31T09:01:01+02:00</time>
      </trkpt>
      <trkpt lat="43.58239" lon="2.99311">
        <ele>490</ele>
        <time>2021-03-31T09:01:24+02:00</time>
      </trkpt>
      <trkpt lat="43.5825" lon="2.99338">
        <ele>494</ele>
        <time>2021-03-31T09:01:57+02:00</time>
      </trkpt>
      <trkpt lat="43.5826" lon="2.99367">
        <ele>496</ele>
        <time>2021-03-31T09:02:24+02:00</time>
      </trkpt>
      <trkpt lat="43.58266" lon="2.99398">
        <ele>495</ele>
        <time>2021-03-31T09:02:53+02:00</time>
      </trkpt>
      <trkpt lat="43.58286" lon="2.99412">
        <ele>491</ele>
        <time>2021-03-31T09:03:46+02:00</time>
      </trkpt>
      <trkpt lat="43.58292" lon="2.99382">
        <ele>500</ele>
        <time>2021-03-31T09:06:37+02:00</time>
      </trkpt>
      <trkpt lat="43.58304" lon="2.99355">
        <ele>509</ele>
        <time>2021-03-31T09:07:42+02:00</time>
      </trkpt>
      <trkpt lat="43.5831" lon="2.99325">
        <ele>519</ele>
        <time>2021-03-31T09:08:45+02:00</time>
      </trkpt>
      <trkpt lat="43.58332" lon="2.99329">
        <ele>520</ele>
        <time>2021-03-31T09:09:56+02:00</time>
      </trkpt>
      <trkpt lat="43.58351" lon="2.99347">
        <ele>513</ele>
        <time>2021-03-31T09:11:52+02:00</time>
      </trkpt>
      <trkpt lat="43.58374" lon="2.99349">
        <ele>515</ele>
        <time>2021-03-31T09:12:35+02:00</time>
      </trkpt>
      <trkpt lat="43.58397" lon="2.99344">
        <ele>523</ele>
        <time>2021-03-31T09:14:02+02:00</time>
      </trkpt>
      <trkpt lat="43.58417" lon="2.99357">
        <ele>511</ele>
        <time>2021-03-31T09:14:32+02:00</time>
      </trkpt>
      <trkpt lat="43.58434" lon="2.99335">
        <ele>524</ele>
        <time>2021-03-31T09:15:12+02:00</time>
      </trkpt>
      <trkpt lat="43.58452" lon="2.99316">
        <ele>534</ele>
        <time>2021-03-31T09:16:03+02:00</time>
      </trkpt>
      <trkpt lat="43.58469" lon="2.99296">
        <ele>544</ele>
        <time>2021-03-31T09:18:05+02:00</time>
      </trkpt>
      <trkpt lat="43.58479" lon="2.99325">
        <ele>517</ele>
        <time>2021-03-31T09:22:02+02:00</time>
      </trkpt>
      <trkpt lat="43.58496" lon="2.99346">
        <ele>499</ele>
        <time>2021-03-31T09:22:38+02:00</time>
      </trkpt>
      <trkpt lat="43.58519" lon="2.99344">
        <ele>502</ele>
        <time>2021-03-31T09:23:21+02:00</time>
      </trkpt>
      <trkpt lat="43.58524" lon="2.99314">
        <ele>510</ele>
        <time>2021-03-31T09:28:25+02:00</time>
      </trkpt>
      <trkpt lat="43.58544" lon="2.99329">
        <ele>516</ele>
        <time>2021-03-31T09:35:24+02:00</time>
      </trkpt>
      <trkpt lat="43.58535" lon="2.99357">
        <ele>508</ele>
        <time>2021-03-31T09:36:42+02:00</time>
      </trkpt>
      <trkpt lat="43.58556" lon="2.99369">
        <ele>522</ele>
        <time>2021-03-31T09:38:40+02:00</time>
      </trkpt>
      <trkpt lat="43.58577" lon="2.99359">
        <ele>538</ele>
        <time>2021-03-31T09:40:53+02:00</time>
      </trkpt>
      <trkpt lat="43.586" lon="2.99362">
        <ele>551</ele>
        <time>2021-03-31T09:44:09+02:00</time>
      </trkpt>
      <trkpt lat="43.58621" lon="2.99374">
        <ele>560</ele>
        <time>2021-03-31T09:46:14+02:00</time>
      </trkpt>
      <trkpt lat="43.58644" lon="2.99372">
        <ele>576</ele>
        <time>2021-03-31T09:47:15+02:00</time>
      </trkpt>
      <trkpt lat="43.58667" lon="2.99368">
        <ele>589</ele>
        <time>2021-03-31T09:49:29+02:00</time>
      </trkpt>
      <trkpt lat="43.5869" lon="2.99365">
        <ele>602</ele>
        <time>2021-03-31T09:50:11+02:00</time>
      </trkpt>
      <trkpt lat="43.58696" lon="2.99396">
        <ele>595</ele>
        <time>2021-03-31T09:50:47+02:00</time>
      </trkpt>
      <trkpt lat="43.58718" lon="2.99392">
        <ele>610</ele>
        <time>2021-03-31T09:52:21+02:00</time>
      </trkpt>
      <trkpt lat="43.58738" lon="2.99377">
        <ele>624</ele>
        <time>2021-03-31T09:53:53+02:00</time>
      </trkpt>
      <trkpt lat="43.58759" lon="2.99362">
        <ele>636</ele>
        <time>2021-03-31T09:54:41+02:00</time>
      </trkpt>
      <trkpt lat="43.58779" lon="2.9935">
        <ele>649</ele>
        <time>2021-03-31T09:55:50+02:00</time>
      </trkpt>
      <trkpt lat="43.58797" lon="2.99331">
        <ele>662</ele>
        <time>2021-03-31T09:56:30+02:00</time>
      </trkpt>
      <trkpt lat="43.5882" lon="2.99332">
        <ele>672</ele>
        <time>2021-03-31T09:59:19+02:00</time>
      </trkpt>
      <trkpt lat="43.58843" lon="2.99334">
        <ele>684</ele>
        <time>2021-03-31T10:00:17+02:00</time>
      </trkpt>
      <trkpt lat="43.58858" lon="2.99312">
        <ele>692</ele>
        <time>2021-03-31T10:03:22+02:00</time>
      </trkpt>
      <trkpt lat="43.58871" lon="2.99286">
        <ele>696</ele>
        <time>2021-03-31T10:03:49+02:00</time>
      </trkpt>
      <trkpt lat="43.58889" lon="2.99266">
        <ele>699</ele>
        <time>2021-03-31T10:04:17+02:00</time>
      </trkpt>
      <trkpt lat="43.58912" lon="2.9926">
        <ele>708</ele>
        <time>2021-03-31T10:04:50+02:00</time>
      </trkpt>
      <trkpt lat="43.58932" lon="2.99245">
        <ele>713</ele>
        <time>2021-03-31T10:05:11+02:00</time>
      </trkpt>
      <trkpt lat="43.58927" lon="2.99214">
        <ele>714</ele>
        <time>2021-03-31T10:07:11+02:00</time>
      </trkpt>
      <trkpt lat="43.58907" lon="2.992">
        <ele>714</ele>
        <time>2021-03-31T10:08:01+02:00</time>
      </trkpt>
      <trkpt lat="43.58924" lon="2.99178">
        <ele>729</ele>
        <time>2021-03-31T10:09:05+02:00</time>
      </trkpt>
      <trkpt lat="43.58918" lon="2.99147">
        <ele>742</ele>
        <time>2021-03-31T10:09:51+02:00</time>
      </trkpt>
      <trkpt lat="43.58906" lon="2.99121">
        <ele>742</ele>
        <time>2021-03-31T10:12:07+02:00</time>
      </trkpt>
      <trkpt lat="43.58896" lon="2.99091">
        <ele>739</ele>
        <time>2021-03-31T10:13:10+02:00</time>
      </trkpt>
      <trkpt lat="43.58899" lon="2.9906">
        <ele>744</ele>
        <time>2021-03-31T10:13:40+02:00</time>
      </trkpt>
      <trkpt lat="43.58912" lon="2.99033">
        <ele>755</ele>
        <time>2021-03-31T10:14:22+02:00</time>
      </trkpt>
      <trkpt lat="43.5892" lon="2.99003">
        <ele>765</ele>
        <time>2021-03-31T10:14:59+02:00</time>
      </trkpt>
      <trkpt lat="43.58918" lon="2.98971">
        <ele>770</ele>
        <time>2021-03-31T10:15:30+02:00</time>
      </trkpt>
      <trkpt lat="43.58914" lon="2.98941">
        <ele>778</ele>
        <time>2021-03-31T10:16:14+02:00</time>
      </trkpt>
      <trkpt lat="43.58908" lon="2.9891">
        <ele>780</ele>
        <time>2021-03-31T10:17:55+02:00</time>
      </trkpt>
      <trkpt lat="43.58929" lon="2.98899">
        <ele>795</ele>
        <time>2021-03-31T10:19:55+02:00</time>
      </trkpt>
      <trkpt lat="43.58951" lon="2.98902">
        <ele>811</ele>
        <time>2021-03-31T10:21:00+02:00</time>
      </trkpt>
      <trkpt lat="43.58971" lon="2.98887">
        <ele>823</ele>
        <time>2021-03-31T10:22:23+02:00</time>
      </trkpt>
      <trkpt lat="43.58994" lon="2.98883">
        <ele>835</ele>
        <time>2021-03-31T10:23:59+02:00</time>
      </trkpt>
      <trkpt lat="43.59013" lon="2.98866">
        <ele>843</ele>
        <time>2021-03-31T10:24:29+02:00</time>
      </trkpt>
      <trkpt lat="43.59024" lon="2.98837">
        <ele>847</ele>
        <time>2021-03-31T10:25:03+02:00</time>
      </trkpt>
      <trkpt lat="43.5904" lon="2.98814">
        <ele>859</ele>
        <time>2021-03-31T10:25:46+02:00</time>
      </trkpt>
      <trkpt lat="43.59061" lon="2.98805">
        <ele>878</ele>
        <time>2021-03-31T10:26:50+02:00</time>
      </trkpt>
      <trkpt lat="43.59083" lon="2.98811">
        <ele>894</ele>
        <time>2021-03-31T10:28:02+02:00</time>
      </trkpt>
      <trkpt lat="43.59106" lon="2.98806">
        <ele>915</ele>
        <time>2021-03-31T10:29:08+02:00</time>
      </trkpt>
      <trkpt lat="43.59121" lon="2.98782">
        <ele>919</ele>
        <time>2021-03-31T10:30:04+02:00</time>
      </trkpt>
      <trkpt lat="43.5913" lon="2.98754">
        <ele>915</ele>
        <time>2021-03-31T10:30:33+02:00</time>
      </trkpt>
      <trkpt lat="43.59135" lon="2.98723">
        <ele>911</ele>
        <time>2021-03-31T10:31:12+02:00</time>
      </trkpt>
      <trkpt lat="43.59156" lon="2.98708">
        <ele>919</ele>
        <time>2021-03-31T10:31:54+02:00</time>
      </trkpt>
      <trkpt lat="43.59177" lon="2.98719">
        <ele>928</ele>
        <time>2021-03-31T10:33:16+02:00</time>
      </trkpt>
      <trkpt lat="43.59196" lon="2.98736">
        <ele>935</ele>
        <time>2021-03-31T10:34:21+02:00</time>
      </trkpt>
      <trkpt lat="43.59218" lon="2.98745">
        <ele>948</ele>
        <time>2021-03-31T10:35:13+02:00</time>
      </trkpt>
      <trkpt lat="43.5924" lon="2.98752">
        <ele>960</ele>
        <time>2021-03-31T10:35:44+02:00</time>
      </trkpt>
      <trkpt lat="43.59261" lon="2.98739">
        <ele>967</ele>
        <time>2021-03-31T10:36:36+02:00</time>
      </trkpt>
      <trkpt lat="43.59282" lon="2.98727">
        <ele>972</ele>
        <time>2021-03-31T10:37:20+02:00</time>
      </trkpt>
      <trkpt lat="43.59305" lon="2.98732">
        <ele>977</ele>
        <time>2021-03-31T10:37:52+02:00</time>
      </trkpt>
      <trkpt lat="43.59318" lon="2.9874">
        <ele>976</ele>
        <time>2021-03-31T10:45:39+02:00</time>
      </trkpt>
      <trkpt lat="43.59339" lon="2.987">
        <ele>985</ele>
      </trkpt>
      <trkpt lat="43.59399" lon="2.98666">
        <ele>994</ele>
        <time>2021-03-31T10:47:48+02:00</time>
      </trkpt>
      <trkpt lat="43.59424" lon="2.98654">
        <ele>994</ele>
        <time>2021-03-31T10:48:12+02:00</time>
      </trkpt>
      <trkpt lat="43.59454" lon="2.98638">
        <ele>995</ele>
        <time>2021-03-31T10:48:31+02:00</time>
      </trkpt>
      <trkpt lat="43.59467" lon="2.98623">
        <ele>998</ele>
        <time>2021-03-31T10:50:25+02:00</time>
      </trkpt>
      <trkpt lat="43.59492" lon="2.98605">
        <ele>998</ele>
        <time>2021-03-31T10:50:43+02:00</time>
      </trkpt>
      <trkpt lat="43.59512" lon="2.98585">
        <ele>1001</ele>
        <time>2021-03-31T10:51:01+02:00</time>
      </trkpt>
      <trkpt lat="43.59535" lon="2.98571">
        <ele>1004</ele>
        <time>2021-03-31T10:51:20+02:00</time>
      </trkpt>
      <trkpt lat="43.59557" lon="2.9855">
        <ele>1008</ele>
      </trkpt>
      <trkpt lat="43.59558" lon="2.98539">
        <ele>1010</ele>
        <time>2021-03-31T10:51:39+02:00</time>
      </trkpt>
      <trkpt lat="43.59575" lon="2.98534">
        <ele>1010</ele>
        <time>2021-03-31T10:52:07+02:00</time>
      </trkpt>
      <trkpt lat="43.59597" lon="2.98545">
        <ele>1005</ele>
        <time>2021-03-31T10:52:36+02:00</time>
      </trkpt>
      <trkpt lat="43.5962" lon="2.98542">
        <ele>1005</ele>
        <time>2021-03-31T10:53:07+02:00</time>
      </trkpt>
      <trkpt lat="43.59642" lon="2.98544">
        <ele>1007</ele>
        <time>2021-03-31T10:53:41+02:00</time>
      </trkpt>
      <trkpt lat="43.59665" lon="2.98545">
        <ele>1012</ele>
        <time>2021-03-31T10:54:16+02:00</time>
      </trkpt>
      <trkpt lat="43.59686" lon="2.98559">
        <ele>1018</ele>
        <time>2021-03-31T10:55:08+02:00</time>
      </trkpt>
      <trkpt lat="43.59705" lon="2.98541">
        <ele>1020</ele>
        <time>2021-03-31T10:55:37+02:00</time>
      </trkpt>
      <trkpt lat="43.59726" lon="2.98528">
        <ele>1021</ele>
        <time>2021-03-31T10:55:58+02:00</time>
      </trkpt>
      <trkpt lat="43.59743" lon="2.98506">
        <ele>1020</ele>
        <time>2021-03-31T10:56:23+02:00</time>
      </trkpt>
      <trkpt lat="43.59753" lon="2.98477">
        <ele>1017</ele>
        <time>2021-03-31T10:57:03+02:00</time>
      </trkpt>
      <trkpt lat="43.5977" lon="2.98457">
        <ele>1019</ele>
        <time>2021-03-31T10:57:27+02:00</time>
      </trkpt>
      <trkpt lat="43.59774" lon="2.98427">
        <ele>1019</ele>
        <time>2021-03-31T10:59:14+02:00</time>
      </trkpt>
      <trkpt lat="43.59797" lon="2.98428">
        <ele>1020</ele>
        <time>2021-03-31T11:00:09+02:00</time>
      </trkpt>
      <trkpt lat="43.59816" lon="2.98409">
        <ele>1023</ele>
        <time>2021-03-31T11:00:37+02:00</time>
      </trkpt>
      <trkpt lat="43.59839" lon="2.98408">
        <ele>1026</ele>
        <time>2021-03-31T11:00:57+02:00</time>
      </trkpt>
      <trkpt lat="43.5986" lon="2.98424">
        <ele>1028</ele>
        <time>2021-03-31T11:01:16+02:00</time>
      </trkpt>
      <trkpt lat="43.59884" lon="2.98423">
        <ele>1029</ele>
        <time>2021-03-31T11:01:38+02:00</time>
      </trkpt>
      <trkpt lat="43.59907" lon="2.98426">
        <ele>1030</ele>
        <time>2021-03-31T11:02:00+02:00</time>
      </trkpt>
      <trkpt lat="43.59926" lon="2.98444">
        <ele>1031</ele>
        <time>2021-03-31T11:02:28+02:00</time>
      </trkpt>
      <trkpt lat="43.59941" lon="2.98467">
        <ele>1031</ele>
        <time>2021-03-31T11:02:46+02:00</time>
      </trkpt>
      <trkpt lat="43.59964" lon="2.98474">
        <ele>1032</ele>
        <time>2021-03-31T11:03:06+02:00</time>
      </trkpt>
      <trkpt lat="43.59987" lon="2.98477">
        <ele>1033</ele>
        <time>2021-03-31T11:03:23+02:00</time>
      </trkpt>
      <trkpt lat="43.60008" lon="2.98466">
        <ele>1035</ele>
        <time>2021-03-31T11:03:40+02:00</time>
      </trkpt>
      <trkpt lat="43.60029" lon="2.98453">
        <ele>1036</ele>
        <time>2021-03-31T11:04:04+02:00</time>
      </trkpt>
      <trkpt lat="43.60052" lon="2.98446">
        <ele>1037</ele>
        <time>2021-03-31T11:04:34+02:00</time>
      </trkpt>
      <trkpt lat="43.60074" lon="2.98439">
        <ele>1038</ele>
        <time>2021-03-31T11:05:05+02:00</time>
      </trkpt>
      <trkpt lat="43.60096" lon="2.98438">
        <ele>1038</ele>
        <time>2021-03-31T11:05:33+02:00</time>
      </trkpt>
      <trkpt lat="43.60118" lon="2.98423">
        <ele>1039</ele>
        <time>2021-03-31T11:06:01+02:00</time>
      </trkpt>
      <trkpt lat="43.60137" lon="2.98403">
        <ele>1039</ele>
        <time>2021-03-31T11:06:27+02:00</time>
      </trkpt>
      <trkpt lat="43.60142" lon="2.98373">
        <ele>1040</ele>
        <time>2021-03-31T11:06:44+02:00</time>
      </trkpt>
      <trkpt lat="43.60148" lon="2.98343">
        <ele>1040</ele>
        <time>2021-03-31T11:07:07+02:00</time>
      </trkpt>
      <trkpt lat="43.60149" lon="2.9831">
        <ele>1042</ele>
        <time>2021-03-31T11:11:38+02:00</time>
      </trkpt>
      <trkpt lat="43.60158" lon="2.98338">
        <ele>1040</ele>
        <time>2021-03-31T11:13:53+02:00</time>
      </trkpt>
      <trkpt lat="43.60167" lon="2.98368">
        <ele>1040</ele>
        <time>2021-03-31T11:14:15+02:00</time>
      </trkpt>
      <trkpt lat="43.60179" lon="2.98395">
        <ele>1041</ele>
        <time>2021-03-31T11:14:31+02:00</time>
      </trkpt>
      <trkpt lat="43.60196" lon="2.98416">
        <ele>1042</ele>
        <time>2021-03-31T11:14:45+02:00</time>
      </trkpt>
      <trkpt lat="43.60214" lon="2.98436">
        <ele>1044</ele>
        <time>2021-03-31T11:15:03+02:00</time>
      </trkpt>
      <trkpt lat="43.60222" lon="2.98467">
        <ele>1045</ele>
        <time>2021-03-31T11:15:18+02:00</time>
      </trkpt>
      <trkpt lat="43.60222" lon="2.985">
        <ele>1046</ele>
        <time>2021-03-31T11:15:37+02:00</time>
      </trkpt>
      <trkpt lat="43.60225" lon="2.98532">
        <ele>1046</ele>
        <time>2021-03-31T11:15:54+02:00</time>
      </trkpt>
      <trkpt lat="43.60228" lon="2.98564">
        <ele>1048</ele>
        <time>2021-03-31T11:16:12+02:00</time>
      </trkpt>
      <trkpt lat="43.60224" lon="2.98596">
        <ele>1048</ele>
        <time>2021-03-31T11:16:28+02:00</time>
      </trkpt>
      <trkpt lat="43.60224" lon="2.98629">
        <ele>1049</ele>
        <time>2021-03-31T11:16:44+02:00</time>
      </trkpt>
      <trkpt lat="43.60225" lon="2.98661">
        <ele>1050</ele>
        <time>2021-03-31T11:16:59+02:00</time>
      </trkpt>
      <trkpt lat="43.60228" lon="2.98694">
        <ele>1053</ele>
        <time>2021-03-31T11:17:16+02:00</time>
      </trkpt>
      <trkpt lat="43.60239" lon="2.98722">
        <ele>1056</ele>
        <time>2021-03-31T11:17:37+02:00</time>
      </trkpt>
      <trkpt lat="43.60252" lon="2.98748">
        <ele>1059</ele>
        <time>2021-03-31T11:17:56+02:00</time>
      </trkpt>
      <trkpt lat="43.60262" lon="2.98777">
        <ele>1061</ele>
        <time>2021-03-31T11:18:18+02:00</time>
      </trkpt>
      <trkpt lat="43.60273" lon="2.98804">
        <ele>1063</ele>
        <time>2021-03-31T11:18:50+02:00</time>
      </trkpt>
      <trkpt lat="43.60285" lon="2.98831">
        <ele>1063</ele>
        <time>2021-03-31T11:19:40+02:00</time>
      </trkpt>
      <trkpt lat="43.60295" lon="2.98861">
        <ele>1061</ele>
        <time>2021-03-31T11:19:55+02:00</time>
      </trkpt>
      <trkpt lat="43.60307" lon="2.98889">
        <ele>1060</ele>
        <time>2021-03-31T11:20:13+02:00</time>
      </trkpt>
      <trkpt lat="43.60323" lon="2.98913">
        <ele>1060</ele>
        <time>2021-03-31T11:20:28+02:00</time>
      </trkpt>
      <trkpt lat="43.60339" lon="2.98937">
        <ele>1060</ele>
        <time>2021-03-31T11:20:50+02:00</time>
      </trkpt>
      <trkpt lat="43.60344" lon="2.98967">
        <ele>1059</ele>
        <time>2021-03-31T11:21:07+02:00</time>
      </trkpt>
      <trkpt lat="43.60355" lon="2.98996">
        <ele>1059</ele>
        <time>2021-03-31T11:21:24+02:00</time>
      </trkpt>
      <trkpt lat="43.60376" lon="2.9898">
        <ele>1060</ele>
        <time>2021-03-31T11:21:51+02:00</time>
      </trkpt>
      <trkpt lat="43.60394" lon="2.98959">
        <ele>1062</ele>
        <time>2021-03-31T11:22:11+02:00</time>
      </trkpt>
      <trkpt lat="43.60412" lon="2.98939">
        <ele>1064</ele>
        <time>2021-03-31T11:22:27+02:00</time>
      </trkpt>
      <trkpt lat="43.60434" lon="2.98927">
        <ele>1066</ele>
        <time>2021-03-31T11:22:43+02:00</time>
      </trkpt>
      <trkpt lat="43.60456" lon="2.98919">
        <ele>1068</ele>
        <time>2021-03-31T11:23:01+02:00</time>
      </trkpt>
      <trkpt lat="43.60479" lon="2.98917">
        <ele>1069</ele>
        <time>2021-03-31T11:23:18+02:00</time>
      </trkpt>
      <trkpt lat="43.60501" lon="2.98905">
        <ele>1071</ele>
        <time>2021-03-31T11:23:37+02:00</time>
      </trkpt>
      <trkpt lat="43.6052" lon="2.98886">
        <ele>1073</ele>
        <time>2021-03-31T11:23:57+02:00</time>
      </trkpt>
      <trkpt lat="43.60541" lon="2.98871">
        <ele>1077</ele>
        <time>2021-03-31T11:24:21+02:00</time>
      </trkpt>
      <trkpt lat="43.60561" lon="2.98856">
        <ele>1080</ele>
        <time>2021-03-31T11:24:42+02:00</time>
      </trkpt>
      <trkpt lat="43.60578" lon="2.98834">
        <ele>1082</ele>
        <time>2021-03-31T11:25:07+02:00</time>
      </trkpt>
      <trkpt lat="43.60598" lon="2.98822">
        <ele>1083</ele>
        <time>2021-03-31T11:26:17+02:00</time>
      </trkpt>
      <trkpt lat="43.60618" lon="2.98807">
        <ele>1085</ele>
        <time>2021-03-31T11:27:32+02:00</time>
      </trkpt>
      <trkpt lat="43.60629" lon="2.98778">
        <ele>1087</ele>
        <time>2021-03-31T11:27:50+02:00</time>
      </trkpt>
      <trkpt lat="43.60631" lon="2.98747">
        <ele>1089</ele>
        <time>2021-03-31T11:28:06+02:00</time>
      </trkpt>
      <trkpt lat="43.60632" lon="2.98707">
        <ele>1090</ele>
        <time>2021-03-31T11:33:37+02:00</time>
      </trkpt>
      <trkpt lat="43.6064" lon="2.98684">
        <ele>1090</ele>
        <time>2021-03-31T11:33:49+02:00</time>
      </trkpt>
      <trkpt lat="43.6063" lon="2.98655">
        <ele>1090</ele>
        <time>2021-03-31T11:34:04+02:00</time>
      </trkpt>
      <trkpt lat="43.60617" lon="2.98627">
        <ele>1090</ele>
        <time>2021-03-31T11:34:14+02:00</time>
      </trkpt>
      <trkpt lat="43.60605" lon="2.98599">
        <ele>1090</ele>
        <time>2021-03-31T11:34:29+02:00</time>
      </trkpt>
      <trkpt lat="43.606" lon="2.98567">
        <ele>1088</ele>
        <time>2021-03-31T11:34:41+02:00</time>
      </trkpt>
      <trkpt lat="43.60598" lon="2.98536">
        <ele>1086</ele>
        <time>2021-03-31T11:34:53+02:00</time>
      </trkpt>
      <trkpt lat="43.60591" lon="2.98505">
        <ele>1084</ele>
        <time>2021-03-31T11:35:08+02:00</time>
      </trkpt>
      <trkpt lat="43.60581" lon="2.98476">
        <ele>1082</ele>
        <time>2021-03-31T11:35:23+02:00</time>
      </trkpt>
      <trkpt lat="43.60583" lon="2.98445">
        <ele>1081</ele>
        <time>2021-03-31T11:35:43+02:00</time>
      </trkpt>
      <trkpt lat="43.6058" lon="2.98413">
        <ele>1078</ele>
        <time>2021-03-31T11:36:03+02:00</time>
      </trkpt>
      <trkpt lat="43.60586" lon="2.98382">
        <ele>1073</ele>
        <time>2021-03-31T11:36:27+02:00</time>
      </trkpt>
      <trkpt lat="43.60593" lon="2.98353">
        <ele>1069</ele>
        <time>2021-03-31T11:36:47+02:00</time>
      </trkpt>
      <trkpt lat="43.60601" lon="2.98324">
        <ele>1067</ele>
        <time>2021-03-31T11:37:08+02:00</time>
      </trkpt>
      <trkpt lat="43.60609" lon="2.98292">
        <ele>1066</ele>
        <time>2021-03-31T11:37:29+02:00</time>
      </trkpt>
      <trkpt lat="43.60606" lon="2.98261">
        <ele>1065</ele>
        <time>2021-03-31T11:37:47+02:00</time>
      </trkpt>
      <trkpt lat="43.60602" lon="2.9823">
        <ele>1065</ele>
        <time>2021-03-31T11:38:42+02:00</time>
      </trkpt>
      <trkpt lat="43.60624" lon="2.9822">
        <ele>1061</ele>
        <time>2021-03-31T11:39:00+02:00</time>
      </trkpt>
      <trkpt lat="43.60638" lon="2.98195">
        <ele>1056</ele>
        <time>2021-03-31T11:39:15+02:00</time>
      </trkpt>
      <trkpt lat="43.6065" lon="2.98169">
        <ele>1055</ele>
        <time>2021-03-31T11:39:30+02:00</time>
      </trkpt>
      <trkpt lat="43.60661" lon="2.98141">
        <ele>1053</ele>
        <time>2021-03-31T11:39:46+02:00</time>
      </trkpt>
      <trkpt lat="43.6067" lon="2.98113">
        <ele>1051</ele>
        <time>2021-03-31T11:40:01+02:00</time>
      </trkpt>
      <trkpt lat="43.60683" lon="2.98086">
        <ele>1049</ele>
        <time>2021-03-31T11:40:16+02:00</time>
      </trkpt>
      <trkpt lat="43.60694" lon="2.98058">
        <ele>1048</ele>
        <time>2021-03-31T11:40:30+02:00</time>
      </trkpt>
      <trkpt lat="43.60705" lon="2.98028">
        <ele>1046</ele>
        <time>2021-03-31T11:40:48+02:00</time>
      </trkpt>
      <trkpt lat="43.60714" lon="2.97998">
        <ele>1043</ele>
        <time>2021-03-31T11:41:03+02:00</time>
      </trkpt>
      <trkpt lat="43.60718" lon="2.97968">
        <ele>1041</ele>
        <time>2021-03-31T11:41:19+02:00</time>
      </trkpt>
      <trkpt lat="43.6072" lon="2.97935">
        <ele>1039</ele>
        <time>2021-03-31T11:41:33+02:00</time>
      </trkpt>
      <trkpt lat="43.60715" lon="2.97905">
        <ele>1038</ele>
        <time>2021-03-31T11:41:48+02:00</time>
      </trkpt>
      <trkpt lat="43.60707" lon="2.97875">
        <ele>1037</ele>
        <time>2021-03-31T11:42:03+02:00</time>
      </trkpt>
      <trkpt lat="43.60696" lon="2.97846">
        <ele>1038</ele>
        <time>2021-03-31T11:42:19+02:00</time>
      </trkpt>
      <trkpt lat="43.60705" lon="2.97817">
        <ele>1031</ele>
        <time>2021-03-31T11:42:44+02:00</time>
      </trkpt>
      <trkpt lat="43.6071" lon="2.97849">
        <ele>1033</ele>
        <time>2021-03-31T11:43:39+02:00</time>
      </trkpt>
      <trkpt lat="43.60724" lon="2.97874">
        <ele>1032</ele>
        <time>2021-03-31T11:43:55+02:00</time>
      </trkpt>
      <trkpt lat="43.60742" lon="2.97893">
        <ele>1028</ele>
        <time>2021-03-31T11:44:13+02:00</time>
      </trkpt>
      <trkpt lat="43.60759" lon="2.97916">
        <ele>1025</ele>
        <time>2021-03-31T11:44:29+02:00</time>
      </trkpt>
      <trkpt lat="43.60772" lon="2.97942">
        <ele>1021</ele>
        <time>2021-03-31T11:44:43+02:00</time>
      </trkpt>
      <trkpt lat="43.60778" lon="2.97974">
        <ele>1021</ele>
        <time>2021-03-31T11:45:00+02:00</time>
      </trkpt>
      <trkpt lat="43.60781" lon="2.98008">
        <ele>1021</ele>
        <time>2021-03-31T11:45:16+02:00</time>
      </trkpt>
      <trkpt lat="43.60788" lon="2.98038">
        <ele>1017</ele>
        <time>2021-03-31T11:45:29+02:00</time>
      </trkpt>
      <trkpt lat="43.60792" lon="2.9807">
        <ele>1014</ele>
        <time>2021-03-31T11:45:44+02:00</time>
      </trkpt>
      <trkpt lat="43.60787" lon="2.98102">
        <ele>1015</ele>
        <time>2021-03-31T11:45:59+02:00</time>
      </trkpt>
      <trkpt lat="43.60788" lon="2.98134">
        <ele>1012</ele>
        <time>2021-03-31T11:46:12+02:00</time>
      </trkpt>
      <trkpt lat="43.60791" lon="2.98166">
        <ele>1009</ele>
        <time>2021-03-31T11:46:27+02:00</time>
      </trkpt>
      <trkpt lat="43.60791" lon="2.98198">
        <ele>1007</ele>
        <time>2021-03-31T11:46:43+02:00</time>
      </trkpt>
      <trkpt lat="43.60799" lon="2.98228">
        <ele>1004</ele>
        <time>2021-03-31T11:46:58+02:00</time>
      </trkpt>
      <trkpt lat="43.60811" lon="2.98256">
        <ele>1001</ele>
        <time>2021-03-31T11:47:13+02:00</time>
      </trkpt>
      <trkpt lat="43.60823" lon="2.98283">
        <ele>998</ele>
        <time>2021-03-31T11:47:29+02:00</time>
      </trkpt>
      <trkpt lat="43.60832" lon="2.98314">
        <ele>996</ele>
        <time>2021-03-31T11:47:44+02:00</time>
      </trkpt>
      <trkpt lat="43.60844" lon="2.98342">
        <ele>993</ele>
        <time>2021-03-31T11:47:59+02:00</time>
      </trkpt>
      <trkpt lat="43.60856" lon="2.98369">
        <ele>990</ele>
        <time>2021-03-31T11:48:14+02:00</time>
      </trkpt>
      <trkpt lat="43.60868" lon="2.98396">
        <ele>987</ele>
        <time>2021-03-31T11:48:32+02:00</time>
      </trkpt>
      <trkpt lat="43.60872" lon="2.98427">
        <ele>988</ele>
        <time>2021-03-31T11:48:47+02:00</time>
      </trkpt>
      <trkpt lat="43.60881" lon="2.98458">
        <ele>987</ele>
        <time>2021-03-31T11:49:06+02:00</time>
      </trkpt>
      <trkpt lat="43.60897" lon="2.9848">
        <ele>982</ele>
        <time>2021-03-31T11:49:21+02:00</time>
      </trkpt>
      <trkpt lat="43.60915" lon="2.98503">
        <ele>977</ele>
        <time>2021-03-31T11:49:36+02:00</time>
      </trkpt>
      <trkpt lat="43.60931" lon="2.98526">
        <ele>974</ele>
        <time>2021-03-31T11:49:55+02:00</time>
      </trkpt>
      <trkpt lat="43.60945" lon="2.98552">
        <ele>971</ele>
        <time>2021-03-31T11:50:19+02:00</time>
      </trkpt>
      <trkpt lat="43.60956" lon="2.9858">
        <ele>969</ele>
        <time>2021-03-31T11:50:34+02:00</time>
      </trkpt>
      <trkpt lat="43.60961" lon="2.98548">
        <ele>965</ele>
        <time>2021-03-31T11:50:57+02:00</time>
      </trkpt>
      <trkpt lat="43.60964" lon="2.98516">
        <ele>963</ele>
        <time>2021-03-31T11:51:13+02:00</time>
      </trkpt>
      <trkpt lat="43.60963" lon="2.98485">
        <ele>961</ele>
        <time>2021-03-31T11:51:27+02:00</time>
      </trkpt>
      <trkpt lat="43.6096" lon="2.98452">
        <ele>959</ele>
        <time>2021-03-31T11:51:44+02:00</time>
      </trkpt>
      <trkpt lat="43.6096" lon="2.98419">
        <ele>958</ele>
        <time>2021-03-31T11:51:58+02:00</time>
      </trkpt>
      <trkpt lat="43.60957" lon="2.98386">
        <ele>957</ele>
        <time>2021-03-31T11:52:13+02:00</time>
      </trkpt>
      <trkpt lat="43.60956" lon="2.98352">
        <ele>955</ele>
        <time>2021-03-31T11:52:29+02:00</time>
      </trkpt>
      <trkpt lat="43.60958" lon="2.9832">
        <ele>954</ele>
        <time>2021-03-31T11:52:45+02:00</time>
      </trkpt>
      <trkpt lat="43.60966" lon="2.9829">
        <ele>950</ele>
        <time>2021-03-31T11:52:58+02:00</time>
      </trkpt>
      <trkpt lat="43.60973" lon="2.98259">
        <ele>947</ele>
        <time>2021-03-31T11:53:15+02:00</time>
      </trkpt>
      <trkpt lat="43.60981" lon="2.9823">
        <ele>944</ele>
        <time>2021-03-31T11:53:29+02:00</time>
      </trkpt>
      <trkpt lat="43.60985" lon="2.98199">
        <ele>943</ele>
        <time>2021-03-31T11:53:45+02:00</time>
      </trkpt>
      <trkpt lat="43.60993" lon="2.98169">
        <ele>941</ele>
        <time>2021-03-31T11:53:58+02:00</time>
      </trkpt>
      <trkpt lat="43.61002" lon="2.98141">
        <ele>939</ele>
        <time>2021-03-31T11:54:13+02:00</time>
      </trkpt>
      <trkpt lat="43.61007" lon="2.98109">
        <ele>937</ele>
        <time>2021-03-31T11:54:29+02:00</time>
      </trkpt>
      <trkpt lat="43.61019" lon="2.98079">
        <ele>935</ele>
        <time>2021-03-31T11:54:44+02:00</time>
      </trkpt>
      <trkpt lat="43.61029" lon="2.9805">
        <ele>933</ele>
        <time>2021-03-31T11:54:59+02:00</time>
      </trkpt>
      <trkpt lat="43.61034" lon="2.98019">
        <ele>930</ele>
        <time>2021-03-31T11:55:14+02:00</time>
      </trkpt>
      <trkpt lat="43.61036" lon="2.97987">
        <ele>927</ele>
        <time>2021-03-31T11:55:32+02:00</time>
      </trkpt>
      <trkpt lat="43.61037" lon="2.97956">
        <ele>925</ele>
        <time>2021-03-31T11:55:47+02:00</time>
      </trkpt>
      <trkpt lat="43.61043" lon="2.97924">
        <ele>921</ele>
        <time>2021-03-31T11:56:02+02:00</time>
      </trkpt>
      <trkpt lat="43.61048" lon="2.97894">
        <ele>918</ele>
        <time>2021-03-31T11:56:17+02:00</time>
      </trkpt>
      <trkpt lat="43.61055" lon="2.97864">
        <ele>915</ele>
        <time>2021-03-31T11:56:30+02:00</time>
      </trkpt>
      <trkpt lat="43.61057" lon="2.97832">
        <ele>913</ele>
        <time>2021-03-31T11:56:44+02:00</time>
      </trkpt>
      <trkpt lat="43.6106" lon="2.978">
        <ele>910</ele>
        <time>2021-03-31T11:56:57+02:00</time>
      </trkpt>
      <trkpt lat="43.61059" lon="2.97766">
        <ele>910</ele>
        <time>2021-03-31T11:57:11+02:00</time>
      </trkpt>
      <trkpt lat="43.61062" lon="2.97736">
        <ele>907</ele>
        <time>2021-03-31T11:57:25+02:00</time>
      </trkpt>
      <trkpt lat="43.61066" lon="2.97705">
        <ele>904</ele>
        <time>2021-03-31T11:57:39+02:00</time>
      </trkpt>
      <trkpt lat="43.61067" lon="2.97672">
        <ele>903</ele>
        <time>2021-03-31T11:57:55+02:00</time>
      </trkpt>
      <trkpt lat="43.61065" lon="2.97639">
        <ele>901</ele>
        <time>2021-03-31T11:58:10+02:00</time>
      </trkpt>
      <trkpt lat="43.61068" lon="2.97607">
        <ele>899</ele>
        <time>2021-03-31T11:58:24+02:00</time>
      </trkpt>
      <trkpt lat="43.61072" lon="2.97575">
        <ele>896</ele>
        <time>2021-03-31T11:58:37+02:00</time>
      </trkpt>
      <trkpt lat="43.61069" lon="2.97544">
        <ele>897</ele>
        <time>2021-03-31T12:00:37+02:00</time>
      </trkpt>
      <trkpt lat="43.61074" lon="2.97512">
        <ele>895</ele>
        <time>2021-03-31T12:02:07+02:00</time>
      </trkpt>
      <trkpt lat="43.61064" lon="2.97484">
        <ele>896</ele>
        <time>2021-03-31T12:02:35+02:00</time>
      </trkpt>
      <trkpt lat="43.61048" lon="2.97462">
        <ele>897</ele>
        <time>2021-03-31T12:02:58+02:00</time>
      </trkpt>
      <trkpt lat="43.6103" lon="2.9744">
        <ele>899</ele>
        <time>2021-03-31T12:03:13+02:00</time>
      </trkpt>
      <trkpt lat="43.61017" lon="2.97414">
        <ele>900</ele>
        <time>2021-03-31T12:03:29+02:00</time>
      </trkpt>
      <trkpt lat="43.61019" lon="2.97383">
        <ele>900</ele>
        <time>2021-03-31T12:03:51+02:00</time>
      </trkpt>
      <trkpt lat="43.61032" lon="2.97355">
        <ele>900</ele>
        <time>2021-03-31T12:04:11+02:00</time>
      </trkpt>
      <trkpt lat="43.61049" lon="2.97334">
        <ele>902</ele>
        <time>2021-03-31T12:04:40+02:00</time>
      </trkpt>
      <trkpt lat="43.61066" lon="2.97314">
        <ele>904</ele>
        <time>2021-03-31T12:05:12+02:00</time>
      </trkpt>
      <trkpt lat="43.611" lon="2.97298">
        <ele>906</ele>
        <time>2021-03-31T12:31:59+02:00</time>
      </trkpt>
      <trkpt lat="43.6107" lon="2.97306">
        <ele>904</ele>
      </trkpt>
      <trkpt lat="43.61061" lon="2.97301">
        <ele>905</ele>
        <time>2021-03-31T12:32:14+02:00</time>
      </trkpt>
      <trkpt lat="43.61039" lon="2.97289">
        <ele>905</ele>
        <time>2021-03-31T12:37:09+02:00</time>
      </trkpt>
      <trkpt lat="43.61023" lon="2.97266">
        <ele>907</ele>
        <time>2021-03-31T12:37:32+02:00</time>
      </trkpt>
      <trkpt lat="43.61006" lon="2.97251">
        <ele>909</ele>
        <time>2021-03-31T12:38:02+02:00</time>
      </trkpt>
      <trkpt lat="43.60993" lon="2.97237">
        <ele>910</ele>
        <time>2021-03-31T12:38:27+02:00</time>
      </trkpt>
      <trkpt lat="43.60972" lon="2.97223">
        <ele>914</ele>
        <time>2021-03-31T12:38:45+02:00</time>
      </trkpt>
      <trkpt lat="43.60951" lon="2.97209">
        <ele>918</ele>
        <time>2021-03-31T12:39:05+02:00</time>
      </trkpt>
      <trkpt lat="43.60934" lon="2.97187">
        <ele>921</ele>
        <time>2021-03-31T12:39:24+02:00</time>
      </trkpt>
      <trkpt lat="43.60915" lon="2.9717">
        <ele>925</ele>
        <time>2021-03-31T12:39:42+02:00</time>
      </trkpt>
      <trkpt lat="43.60903" lon="2.97144">
        <ele>928</ele>
        <time>2021-03-31T12:40:01+02:00</time>
      </trkpt>
      <trkpt lat="43.60894" lon="2.97114">
        <ele>930</ele>
        <time>2021-03-31T12:40:19+02:00</time>
      </trkpt>
      <trkpt lat="43.60878" lon="2.97091">
        <ele>933</ele>
        <time>2021-03-31T12:40:40+02:00</time>
      </trkpt>
      <trkpt lat="43.60857" lon="2.97079">
        <ele>936</ele>
        <time>2021-03-31T12:40:55+02:00</time>
      </trkpt>
      <trkpt lat="43.60853" lon="2.97048">
        <ele>939</ele>
        <time>2021-03-31T12:41:15+02:00</time>
      </trkpt>
      <trkpt lat="43.60855" lon="2.97017">
        <ele>942</ele>
        <time>2021-03-31T12:41:41+02:00</time>
      </trkpt>
      <trkpt lat="43.60853" lon="2.96986">
        <ele>945</ele>
        <time>2021-03-31T12:42:01+02:00</time>
      </trkpt>
      <trkpt lat="43.60862" lon="2.96956">
        <ele>948</ele>
        <time>2021-03-31T12:42:27+02:00</time>
      </trkpt>
      <trkpt lat="43.60869" lon="2.96924">
        <ele>951</ele>
        <time>2021-03-31T12:42:47+02:00</time>
      </trkpt>
      <trkpt lat="43.60884" lon="2.96901">
        <ele>955</ele>
        <time>2021-03-31T12:43:07+02:00</time>
      </trkpt>
      <trkpt lat="43.60903" lon="2.96882">
        <ele>959</ele>
        <time>2021-03-31T12:43:29+02:00</time>
      </trkpt>
      <trkpt lat="43.60921" lon="2.96863">
        <ele>964</ele>
        <time>2021-03-31T12:43:50+02:00</time>
      </trkpt>
      <trkpt lat="43.60942" lon="2.9685">
        <ele>968</ele>
        <time>2021-03-31T12:44:12+02:00</time>
      </trkpt>
      <trkpt lat="43.60962" lon="2.96833">
        <ele>970</ele>
        <time>2021-03-31T12:44:35+02:00</time>
      </trkpt>
      <trkpt lat="43.60972" lon="2.96803">
        <ele>970</ele>
        <time>2021-03-31T12:44:55+02:00</time>
      </trkpt>
      <trkpt lat="43.60982" lon="2.96775">
        <ele>971</ele>
        <time>2021-03-31T12:45:12+02:00</time>
      </trkpt>
      <trkpt lat="43.60989" lon="2.96745">
        <ele>972</ele>
        <time>2021-03-31T12:45:29+02:00</time>
      </trkpt>
      <trkpt lat="43.61011" lon="2.96735">
        <ele>973</ele>
        <time>2021-03-31T12:45:53+02:00</time>
      </trkpt>
      <trkpt lat="43.61033" lon="2.96739">
        <ele>977</ele>
        <time>2021-03-31T12:46:13+02:00</time>
      </trkpt>
      <trkpt lat="43.61056" lon="2.96731">
        <ele>981</ele>
        <time>2021-03-31T12:46:32+02:00</time>
      </trkpt>
      <trkpt lat="43.61079" lon="2.96722">
        <ele>987</ele>
        <time>2021-03-31T12:46:58+02:00</time>
      </trkpt>
      <trkpt lat="43.61101" lon="2.96712">
        <ele>993</ele>
        <time>2021-03-31T12:47:24+02:00</time>
      </trkpt>
      <trkpt lat="43.61124" lon="2.96704">
        <ele>999</ele>
        <time>2021-03-31T12:47:49+02:00</time>
      </trkpt>
      <trkpt lat="43.61145" lon="2.96692">
        <ele>1003</ele>
        <time>2021-03-31T12:48:17+02:00</time>
      </trkpt>
      <trkpt lat="43.61165" lon="2.96675">
        <ele>1005</ele>
        <time>2021-03-31T12:48:40+02:00</time>
      </trkpt>
      <trkpt lat="43.61186" lon="2.96667">
        <ele>1008</ele>
        <time>2021-03-31T12:49:01+02:00</time>
      </trkpt>
      <trkpt lat="43.61209" lon="2.96661">
        <ele>1009</ele>
        <time>2021-03-31T12:49:31+02:00</time>
      </trkpt>
      <trkpt lat="43.61232" lon="2.96663">
        <ele>1010</ele>
        <time>2021-03-31T12:49:51+02:00</time>
      </trkpt>
      <trkpt lat="43.61249" lon="2.96682">
        <ele>1010</ele>
        <time>2021-03-31T12:50:13+02:00</time>
      </trkpt>
      <trkpt lat="43.61272" lon="2.9669">
        <ele>1009</ele>
        <time>2021-03-31T12:50:47+02:00</time>
      </trkpt>
      <trkpt lat="43.61295" lon="2.96696">
        <ele>1006</ele>
        <time>2021-03-31T12:51:06+02:00</time>
      </trkpt>
      <trkpt lat="43.61317" lon="2.96705">
        <ele>1001</ele>
        <time>2021-03-31T12:51:22+02:00</time>
      </trkpt>
      <trkpt lat="43.61339" lon="2.96712">
        <ele>997</ele>
        <time>2021-03-31T12:51:59+02:00</time>
      </trkpt>
      <trkpt lat="43.61362" lon="2.96714">
        <ele>992</ele>
        <time>2021-03-31T12:52:22+02:00</time>
      </trkpt>
      <trkpt lat="43.61385" lon="2.96711">
        <ele>990</ele>
        <time>2021-03-31T12:52:41+02:00</time>
      </trkpt>
      <trkpt lat="43.61408" lon="2.96707">
        <ele>989</ele>
        <time>2021-03-31T12:52:59+02:00</time>
      </trkpt>
      <trkpt lat="43.6143" lon="2.96701">
        <ele>987</ele>
        <time>2021-03-31T12:53:18+02:00</time>
      </trkpt>
      <trkpt lat="43.61446" lon="2.96679">
        <ele>982</ele>
        <time>2021-03-31T12:53:39+02:00</time>
      </trkpt>
      <trkpt lat="43.6147" lon="2.9667">
        <ele>977</ele>
        <time>2021-03-31T12:53:55+02:00</time>
      </trkpt>
      <trkpt lat="43.61489" lon="2.96653">
        <ele>972</ele>
        <time>2021-03-31T12:54:13+02:00</time>
      </trkpt>
      <trkpt lat="43.61508" lon="2.96636">
        <ele>966</ele>
        <time>2021-03-31T12:54:33+02:00</time>
      </trkpt>
      <trkpt lat="43.6153" lon="2.96627">
        <ele>963</ele>
        <time>2021-03-31T12:54:50+02:00</time>
      </trkpt>
      <trkpt lat="43.61524" lon="2.96596">
        <ele>961</ele>
        <time>2021-03-31T12:55:33+02:00</time>
      </trkpt>
      <trkpt lat="43.61503" lon="2.96582">
        <ele>958</ele>
        <time>2021-03-31T12:55:51+02:00</time>
      </trkpt>
      <trkpt lat="43.61481" lon="2.9657">
        <ele>957</ele>
        <time>2021-03-31T12:56:11+02:00</time>
      </trkpt>
      <trkpt lat="43.61462" lon="2.96553">
        <ele>955</ele>
        <time>2021-03-31T12:56:29+02:00</time>
      </trkpt>
      <trkpt lat="43.61444" lon="2.96534">
        <ele>953</ele>
        <time>2021-03-31T12:56:45+02:00</time>
      </trkpt>
      <trkpt lat="43.61425" lon="2.96516">
        <ele>952</ele>
        <time>2021-03-31T12:57:00+02:00</time>
      </trkpt>
      <trkpt lat="43.61406" lon="2.96496">
        <ele>951</ele>
        <time>2021-03-31T12:57:17+02:00</time>
      </trkpt>
      <trkpt lat="43.61385" lon="2.9648">
        <ele>951</ele>
        <time>2021-03-31T12:57:34+02:00</time>
      </trkpt>
      <trkpt lat="43.61363" lon="2.96476">
        <ele>954</ele>
        <time>2021-03-31T12:57:51+02:00</time>
      </trkpt>
      <trkpt lat="43.61349" lon="2.96451">
        <ele>952</ele>
        <time>2021-03-31T12:58:10+02:00</time>
      </trkpt>
      <trkpt lat="43.61332" lon="2.96428">
        <ele>950</ele>
        <time>2021-03-31T12:58:27+02:00</time>
      </trkpt>
      <trkpt lat="43.61319" lon="2.96401">
        <ele>948</ele>
        <time>2021-03-31T12:58:45+02:00</time>
      </trkpt>
      <trkpt lat="43.61309" lon="2.96373">
        <ele>945</ele>
        <time>2021-03-31T12:59:08+02:00</time>
      </trkpt>
      <trkpt lat="43.61285" lon="2.96368">
        <ele>943</ele>
        <time>2021-03-31T12:59:23+02:00</time>
      </trkpt>
      <trkpt lat="43.61262" lon="2.96363">
        <ele>942</ele>
        <time>2021-03-31T12:59:41+02:00</time>
      </trkpt>
      <trkpt lat="43.61243" lon="2.96344">
        <ele>938</ele>
        <time>2021-03-31T12:59:59+02:00</time>
      </trkpt>
      <trkpt lat="43.6123" lon="2.96315">
        <ele>934</ele>
        <time>2021-03-31T13:00:16+02:00</time>
      </trkpt>
      <trkpt lat="43.61223" lon="2.96286">
        <ele>932</ele>
        <time>2021-03-31T13:00:31+02:00</time>
      </trkpt>
      <trkpt lat="43.61237" lon="2.9626">
        <ele>928</ele>
        <time>2021-03-31T13:00:48+02:00</time>
      </trkpt>
      <trkpt lat="43.6126" lon="2.96258">
        <ele>924</ele>
        <time>2021-03-31T13:01:05+02:00</time>
      </trkpt>
      <trkpt lat="43.61284" lon="2.96258">
        <ele>920</ele>
        <time>2021-03-31T13:01:23+02:00</time>
      </trkpt>
      <trkpt lat="43.61306" lon="2.96263">
        <ele>919</ele>
        <time>2021-03-31T13:01:39+02:00</time>
      </trkpt>
      <trkpt lat="43.61329" lon="2.96254">
        <ele>914</ele>
        <time>2021-03-31T13:01:56+02:00</time>
      </trkpt>
      <trkpt lat="43.61353" lon="2.96252">
        <ele>910</ele>
        <time>2021-03-31T13:02:15+02:00</time>
      </trkpt>
      <trkpt lat="43.61376" lon="2.96256">
        <ele>908</ele>
        <time>2021-03-31T13:02:35+02:00</time>
      </trkpt>
      <trkpt lat="43.61399" lon="2.96264">
        <ele>906</ele>
        <time>2021-03-31T13:02:51+02:00</time>
      </trkpt>
      <trkpt lat="43.61423" lon="2.96277">
        <ele>905</ele>
      </trkpt>
      <trkpt lat="43.61405" lon="2.96234">
        <ele>903</ele>
        <time>2021-03-31T13:03:31+02:00</time>
      </trkpt>
      <trkpt lat="43.61398" lon="2.96202">
        <ele>900</ele>
        <time>2021-03-31T13:03:57+02:00</time>
      </trkpt>
      <trkpt lat="43.61385" lon="2.96174">
        <ele>898</ele>
        <time>2021-03-31T13:04:15+02:00</time>
      </trkpt>
      <trkpt lat="43.61373" lon="2.96148">
        <ele>897</ele>
        <time>2021-03-31T13:04:38+02:00</time>
      </trkpt>
      <trkpt lat="43.61355" lon="2.96126">
        <ele>892</ele>
        <time>2021-03-31T13:04:57+02:00</time>
      </trkpt>
      <trkpt lat="43.61344" lon="2.96098">
        <ele>886</ele>
        <time>2021-03-31T13:05:20+02:00</time>
      </trkpt>
      <trkpt lat="43.61345" lon="2.96066">
        <ele>883</ele>
        <time>2021-03-31T13:05:36+02:00</time>
      </trkpt>
      <trkpt lat="43.61325" lon="2.96052">
        <ele>872</ele>
        <time>2021-03-31T13:06:12+02:00</time>
      </trkpt>
      <trkpt lat="43.61326" lon="2.96021">
        <ele>866</ele>
        <time>2021-03-31T13:06:49+02:00</time>
      </trkpt>
      <trkpt lat="43.61341" lon="2.95997">
        <ele>863</ele>
        <time>2021-03-31T13:07:16+02:00</time>
      </trkpt>
      <trkpt lat="43.61353" lon="2.9597">
        <ele>856</ele>
        <time>2021-03-31T13:07:40+02:00</time>
      </trkpt>
      <trkpt lat="43.61369" lon="2.95946">
        <ele>848</ele>
        <time>2021-03-31T13:08:05+02:00</time>
      </trkpt>
      <trkpt lat="43.61388" lon="2.95929">
        <ele>845</ele>
        <time>2021-03-31T13:08:34+02:00</time>
      </trkpt>
      <trkpt lat="43.61407" lon="2.95912">
        <ele>842</ele>
        <time>2021-03-31T13:08:56+02:00</time>
      </trkpt>
      <trkpt lat="43.61423" lon="2.95888">
        <ele>835</ele>
        <time>2021-03-31T13:09:14+02:00</time>
      </trkpt>
      <trkpt lat="43.61445" lon="2.95876">
        <ele>834</ele>
        <time>2021-03-31T13:09:44+02:00</time>
      </trkpt>
      <trkpt lat="43.61468" lon="2.9587">
        <ele>830</ele>
        <time>2021-03-31T13:10:09+02:00</time>
      </trkpt>
      <trkpt lat="43.6149" lon="2.95878">
        <ele>833</ele>
        <time>2021-03-31T13:10:32+02:00</time>
      </trkpt>
      <trkpt lat="43.6151" lon="2.95863">
        <ele>829</ele>
        <time>2021-03-31T13:11:04+02:00</time>
      </trkpt>
      <trkpt lat="43.61526" lon="2.95839">
        <ele>825</ele>
        <time>2021-03-31T13:11:28+02:00</time>
      </trkpt>
      <trkpt lat="43.61546" lon="2.95824">
        <ele>823</ele>
        <time>2021-03-31T13:11:47+02:00</time>
      </trkpt>
      <trkpt lat="43.61566" lon="2.95809">
        <ele>821</ele>
        <time>2021-03-31T13:12:06+02:00</time>
      </trkpt>
      <trkpt lat="43.61582" lon="2.95786">
        <ele>815</ele>
        <time>2021-03-31T13:12:24+02:00</time>
      </trkpt>
      <trkpt lat="43.61601" lon="2.95768">
        <ele>814</ele>
        <time>2021-03-31T13:12:46+02:00</time>
      </trkpt>
      <trkpt lat="43.61611" lon="2.9574">
        <ele>809</ele>
        <time>2021-03-31T13:13:02+02:00</time>
      </trkpt>
      <trkpt lat="43.61597" lon="2.95715">
        <ele>797</ele>
        <time>2021-03-31T13:14:09+02:00</time>
      </trkpt>
      <trkpt lat="43.61608" lon="2.95688">
        <ele>795</ele>
        <time>2021-03-31T13:14:35+02:00</time>
      </trkpt>
      <trkpt lat="43.61611" lon="2.95655">
        <ele>791</ele>
        <time>2021-03-31T13:14:59+02:00</time>
      </trkpt>
      <trkpt lat="43.61603" lon="2.95625">
        <ele>783</ele>
        <time>2021-03-31T13:15:19+02:00</time>
      </trkpt>
      <trkpt lat="43.61599" lon="2.95593">
        <ele>778</ele>
        <time>2021-03-31T13:15:37+02:00</time>
      </trkpt>
      <trkpt lat="43.61601" lon="2.95562">
        <ele>776</ele>
        <time>2021-03-31T13:15:53+02:00</time>
      </trkpt>
      <trkpt lat="43.61614" lon="2.95533">
        <ele>776</ele>
        <time>2021-03-31T13:16:11+02:00</time>
      </trkpt>
      <trkpt lat="43.61628" lon="2.9551">
        <ele>774</ele>
        <time>2021-03-31T13:16:35+02:00</time>
      </trkpt>
      <trkpt lat="43.61642" lon="2.95485">
        <ele>768</ele>
        <time>2021-03-31T13:16:51+02:00</time>
      </trkpt>
      <trkpt lat="43.61656" lon="2.9546">
        <ele>763</ele>
        <time>2021-03-31T13:17:05+02:00</time>
      </trkpt>
      <trkpt lat="43.61672" lon="2.95437">
        <ele>760</ele>
        <time>2021-03-31T13:17:21+02:00</time>
      </trkpt>
      <trkpt lat="43.61685" lon="2.95409">
        <ele>756</ele>
        <time>2021-03-31T13:17:34+02:00</time>
      </trkpt>
      <trkpt lat="43.61672" lon="2.95383">
        <ele>752</ele>
        <time>2021-03-31T13:22:11+02:00</time>
      </trkpt>
      <trkpt lat="43.61651" lon="2.95399">
        <ele>748</ele>
        <time>2021-03-31T13:22:33+02:00</time>
      </trkpt>
      <trkpt lat="43.61632" lon="2.95415">
        <ele>745</ele>
        <time>2021-03-31T13:22:53+02:00</time>
      </trkpt>
      <trkpt lat="43.61609" lon="2.95425">
        <ele>740</ele>
        <time>2021-03-31T13:23:09+02:00</time>
      </trkpt>
      <trkpt lat="43.61586" lon="2.95432">
        <ele>732</ele>
        <time>2021-03-31T13:23:24+02:00</time>
      </trkpt>
      <trkpt lat="43.61567" lon="2.95455">
        <ele>730</ele>
        <time>2021-03-31T13:23:49+02:00</time>
      </trkpt>
      <trkpt lat="43.61533" lon="2.95493">
        <ele>732</ele>
        <time>2021-03-31T13:24:16+02:00</time>
      </trkpt>
      <trkpt lat="43.6153" lon="2.95419">
        <ele>720</ele>
        <time>2021-03-31T13:24:36+02:00</time>
      </trkpt>
      <trkpt lat="43.61518" lon="2.95391">
        <ele>718</ele>
        <time>2021-03-31T13:24:50+02:00</time>
      </trkpt>
      <trkpt lat="43.61507" lon="2.95364">
        <ele>715</ele>
        <time>2021-03-31T13:25:05+02:00</time>
      </trkpt>
      <trkpt lat="43.6149" lon="2.95341">
        <ele>714</ele>
        <time>2021-03-31T13:25:23+02:00</time>
      </trkpt>
      <trkpt lat="43.61468" lon="2.9533">
        <ele>716</ele>
        <time>2021-03-31T13:25:38+02:00</time>
      </trkpt>
      <trkpt lat="43.61447" lon="2.95316">
        <ele>716</ele>
        <time>2021-03-31T13:25:55+02:00</time>
      </trkpt>
      <trkpt lat="43.61427" lon="2.953">
        <ele>713</ele>
        <time>2021-03-31T13:26:11+02:00</time>
      </trkpt>
      <trkpt lat="43.61406" lon="2.95285">
        <ele>710</ele>
        <time>2021-03-31T13:26:29+02:00</time>
      </trkpt>
      <trkpt lat="43.61383" lon="2.95285">
        <ele>714</ele>
        <time>2021-03-31T13:26:48+02:00</time>
      </trkpt>
      <trkpt lat="43.6136" lon="2.95277">
        <ele>714</ele>
        <time>2021-03-31T13:27:02+02:00</time>
      </trkpt>
      <trkpt lat="43.61338" lon="2.9527">
        <ele>716</ele>
        <time>2021-03-31T13:27:17+02:00</time>
      </trkpt>
      <trkpt lat="43.61317" lon="2.95258">
        <ele>717</ele>
        <time>2021-03-31T13:27:31+02:00</time>
      </trkpt>
      <trkpt lat="43.61301" lon="2.95235">
        <ele>716</ele>
        <time>2021-03-31T13:27:47+02:00</time>
      </trkpt>
      <trkpt lat="43.61285" lon="2.95213">
        <ele>715</ele>
        <time>2021-03-31T13:28:00+02:00</time>
      </trkpt>
      <trkpt lat="43.61264" lon="2.952">
        <ele>713</ele>
        <time>2021-03-31T13:28:14+02:00</time>
      </trkpt>
      <trkpt lat="43.61245" lon="2.95218">
        <ele>714</ele>
        <time>2021-03-31T13:28:33+02:00</time>
      </trkpt>
      <trkpt lat="43.61221" lon="2.95222">
        <ele>711</ele>
        <time>2021-03-31T13:29:07+02:00</time>
      </trkpt>
      <trkpt lat="43.61199" lon="2.95228">
        <ele>708</ele>
        <time>2021-03-31T13:29:23+02:00</time>
      </trkpt>
      <trkpt lat="43.61176" lon="2.95234">
        <ele>705</ele>
        <time>2021-03-31T13:29:45+02:00</time>
      </trkpt>
      <trkpt lat="43.61157" lon="2.95251">
        <ele>702</ele>
        <time>2021-03-31T13:30:07+02:00</time>
      </trkpt>
      <trkpt lat="43.61141" lon="2.95273">
        <ele>698</ele>
        <time>2021-03-31T13:30:31+02:00</time>
      </trkpt>
      <trkpt lat="43.61118" lon="2.95279">
        <ele>690</ele>
        <time>2021-03-31T13:30:51+02:00</time>
      </trkpt>
      <trkpt lat="43.61095" lon="2.95286">
        <ele>688</ele>
        <time>2021-03-31T13:31:14+02:00</time>
      </trkpt>
      <trkpt lat="43.61071" lon="2.95283">
        <ele>682</ele>
        <time>2021-03-31T13:31:32+02:00</time>
      </trkpt>
      <trkpt lat="43.61048" lon="2.95283">
        <ele>677</ele>
        <time>2021-03-31T13:31:59+02:00</time>
      </trkpt>
      <trkpt lat="43.61027" lon="2.95296">
        <ele>673</ele>
        <time>2021-03-31T13:32:42+02:00</time>
      </trkpt>
      <trkpt lat="43.61005" lon="2.953">
        <ele>658</ele>
        <time>2021-03-31T13:33:14+02:00</time>
      </trkpt>
      <trkpt lat="43.60996" lon="2.95329">
        <ele>659</ele>
        <time>2021-03-31T13:33:34+02:00</time>
      </trkpt>
      <trkpt lat="43.60973" lon="2.95338">
        <ele>648</ele>
        <time>2021-03-31T13:33:56+02:00</time>
      </trkpt>
      <trkpt lat="43.60955" lon="2.95319">
        <ele>648</ele>
        <time>2021-03-31T13:34:19+02:00</time>
      </trkpt>
      <trkpt lat="43.60941" lon="2.95292">
        <ele>645</ele>
        <time>2021-03-31T13:34:46+02:00</time>
      </trkpt>
      <trkpt lat="43.60929" lon="2.95266">
        <ele>644</ele>
        <time>2021-03-31T13:35:02+02:00</time>
      </trkpt>
      <trkpt lat="43.60915" lon="2.9524">
        <ele>641</ele>
        <time>2021-03-31T13:35:29+02:00</time>
      </trkpt>
      <trkpt lat="43.60897" lon="2.95219">
        <ele>639</ele>
        <time>2021-03-31T13:35:46+02:00</time>
      </trkpt>
      <trkpt lat="43.60878" lon="2.95201">
        <ele>637</ele>
        <time>2021-03-31T13:36:02+02:00</time>
      </trkpt>
      <trkpt lat="43.60859" lon="2.95186">
        <ele>633</ele>
        <time>2021-03-31T13:38:16+02:00</time>
      </trkpt>
      <trkpt lat="43.60836" lon="2.95192">
        <ele>631</ele>
        <time>2021-03-31T13:38:33+02:00</time>
      </trkpt>
      <trkpt lat="43.60814" lon="2.95202">
        <ele>629</ele>
        <time>2021-03-31T13:38:46+02:00</time>
      </trkpt>
      <trkpt lat="43.60792" lon="2.95205">
        <ele>627</ele>
        <time>2021-03-31T13:39:04+02:00</time>
      </trkpt>
      <trkpt lat="43.60769" lon="2.95202">
        <ele>625</ele>
        <time>2021-03-31T13:39:18+02:00</time>
      </trkpt>
      <trkpt lat="43.60745" lon="2.95199">
        <ele>622</ele>
        <time>2021-03-31T13:39:35+02:00</time>
      </trkpt>
      <trkpt lat="43.60724" lon="2.9521">
        <ele>627</ele>
        <time>2021-03-31T13:39:52+02:00</time>
      </trkpt>
      <trkpt lat="43.607" lon="2.95212">
        <ele>627</ele>
        <time>2021-03-31T13:40:07+02:00</time>
      </trkpt>
      <trkpt lat="43.60677" lon="2.95208">
        <ele>626</ele>
        <time>2021-03-31T13:40:19+02:00</time>
      </trkpt>
      <trkpt lat="43.60654" lon="2.95219">
        <ele>627</ele>
        <time>2021-03-31T13:40:34+02:00</time>
      </trkpt>
      <trkpt lat="43.60636" lon="2.95238">
        <ele>625</ele>
        <time>2021-03-31T13:41:01+02:00</time>
      </trkpt>
      <trkpt lat="43.60615" lon="2.95247">
        <ele>617</ele>
        <time>2021-03-31T13:41:21+02:00</time>
      </trkpt>
      <trkpt lat="43.60594" lon="2.9526">
        <ele>608</ele>
        <time>2021-03-31T13:41:39+02:00</time>
      </trkpt>
      <trkpt lat="43.60572" lon="2.95273">
        <ele>598</ele>
        <time>2021-03-31T13:41:56+02:00</time>
      </trkpt>
      <trkpt lat="43.60553" lon="2.95291">
        <ele>592</ele>
        <time>2021-03-31T13:42:09+02:00</time>
      </trkpt>
      <trkpt lat="43.60544" lon="2.9532">
        <ele>600</ele>
        <time>2021-03-31T13:42:22+02:00</time>
      </trkpt>
      <trkpt lat="43.60523" lon="2.95309">
        <ele>592</ele>
        <time>2021-03-31T13:42:40+02:00</time>
      </trkpt>
      <trkpt lat="43.60501" lon="2.95297">
        <ele>594</ele>
        <time>2021-03-31T13:42:56+02:00</time>
      </trkpt>
      <trkpt lat="43.60482" lon="2.95278">
        <ele>596</ele>
        <time>2021-03-31T13:43:16+02:00</time>
      </trkpt>
      <trkpt lat="43.60464" lon="2.95258">
        <ele>598</ele>
        <time>2021-03-31T13:43:28+02:00</time>
      </trkpt>
      <trkpt lat="43.60447" lon="2.95236">
        <ele>596</ele>
        <time>2021-03-31T13:43:40+02:00</time>
      </trkpt>
      <trkpt lat="43.60427" lon="2.9522">
        <ele>590</ele>
        <time>2021-03-31T13:43:52+02:00</time>
      </trkpt>
      <trkpt lat="43.60408" lon="2.95237">
        <ele>593</ele>
        <time>2021-03-31T13:44:08+02:00</time>
      </trkpt>
      <trkpt lat="43.60388" lon="2.95256">
        <ele>592</ele>
        <time>2021-03-31T13:44:17+02:00</time>
      </trkpt>
      <trkpt lat="43.60367" lon="2.95268">
        <ele>585</ele>
        <time>2021-03-31T13:44:27+02:00</time>
      </trkpt>
      <trkpt lat="43.60344" lon="2.95269">
        <ele>578</ele>
        <time>2021-03-31T13:44:46+02:00</time>
      </trkpt>
      <trkpt lat="43.60321" lon="2.95263">
        <ele>572</ele>
        <time>2021-03-31T13:44:58+02:00</time>
      </trkpt>
      <trkpt lat="43.603" lon="2.95274">
        <ele>577</ele>
        <time>2021-03-31T13:45:10+02:00</time>
      </trkpt>
      <trkpt lat="43.60277" lon="2.95275">
        <ele>577</ele>
        <time>2021-03-31T13:45:26+02:00</time>
      </trkpt>
      <trkpt lat="43.60252" lon="2.95279">
        <ele>581</ele>
        <time>2021-03-31T13:46:00+02:00</time>
      </trkpt>
      <trkpt lat="43.6023" lon="2.95275">
        <ele>584</ele>
        <time>2021-03-31T13:46:25+02:00</time>
      </trkpt>
      <trkpt lat="43.60212" lon="2.95255">
        <ele>582</ele>
        <time>2021-03-31T13:46:42+02:00</time>
      </trkpt>
      <trkpt lat="43.60191" lon="2.95246">
        <ele>583</ele>
        <time>2021-03-31T13:46:59+02:00</time>
      </trkpt>
      <trkpt lat="43.60168" lon="2.95241">
        <ele>584</ele>
        <time>2021-03-31T13:47:18+02:00</time>
      </trkpt>
      <trkpt lat="43.60145" lon="2.95246">
        <ele>587</ele>
        <time>2021-03-31T13:47:36+02:00</time>
      </trkpt>
      <trkpt lat="43.60123" lon="2.95238">
        <ele>586</ele>
        <time>2021-03-31T13:47:51+02:00</time>
      </trkpt>
      <trkpt lat="43.601" lon="2.95234">
        <ele>585</ele>
        <time>2021-03-31T13:48:07+02:00</time>
      </trkpt>
      <trkpt lat="43.60081" lon="2.95254">
        <ele>583</ele>
        <time>2021-03-31T13:48:30+02:00</time>
      </trkpt>
      <trkpt lat="43.60082" lon="2.95286">
        <ele>578</ele>
        <time>2021-03-31T13:48:52+02:00</time>
      </trkpt>
      <trkpt lat="43.60074" lon="2.95317">
        <ele>570</ele>
        <time>2021-03-31T13:49:10+02:00</time>
      </trkpt>
      <trkpt lat="43.60064" lon="2.95345">
        <ele>564</ele>
        <time>2021-03-31T13:49:29+02:00</time>
      </trkpt>
      <trkpt lat="43.60051" lon="2.95372">
        <ele>560</ele>
        <time>2021-03-31T13:49:43+02:00</time>
      </trkpt>
      <trkpt lat="43.60035" lon="2.95395">
        <ele>554</ele>
        <time>2021-03-31T13:50:12+02:00</time>
      </trkpt>
      <trkpt lat="43.60021" lon="2.9542">
        <ele>547</ele>
        <time>2021-03-31T13:50:33+02:00</time>
      </trkpt>
      <trkpt lat="43.60014" lon="2.95451">
        <ele>544</ele>
        <time>2021-03-31T13:51:01+02:00</time>
      </trkpt>
      <trkpt lat="43.60006" lon="2.95481">
        <ele>539</ele>
        <time>2021-03-31T13:51:21+02:00</time>
      </trkpt>
      <trkpt lat="43.59999" lon="2.95511">
        <ele>536</ele>
        <time>2021-03-31T13:51:42+02:00</time>
      </trkpt>
      <trkpt lat="43.59987" lon="2.95538">
        <ele>530</ele>
        <time>2021-03-31T13:52:24+02:00</time>
      </trkpt>
      <trkpt lat="43.5997" lon="2.95543">
        <ele>523</ele>
        <time>2021-03-31T13:53:16+02:00</time>
      </trkpt>
      <trkpt lat="43.5996" lon="2.95566">
        <ele>518</ele>
        <time>2021-03-31T13:56:29+02:00</time>
      </trkpt>
      <trkpt lat="43.59958" lon="2.95535">
        <ele>518</ele>
        <time>2021-03-31T13:59:07+02:00</time>
      </trkpt>
      <trkpt lat="43.59955" lon="2.95504">
        <ele>517</ele>
        <time>2021-03-31T13:59:47+02:00</time>
      </trkpt>
      <trkpt lat="43.59947" lon="2.95475">
        <ele>511</ele>
        <time>2021-03-31T14:00:04+02:00</time>
      </trkpt>
      <trkpt lat="43.59947" lon="2.95443">
        <ele>507</ele>
        <time>2021-03-31T14:00:40+02:00</time>
      </trkpt>
      <trkpt lat="43.5995" lon="2.95411">
        <ele>504</ele>
        <time>2021-03-31T14:01:03+02:00</time>
      </trkpt>
      <trkpt lat="43.59958" lon="2.95382">
        <ele>506</ele>
        <time>2021-03-31T14:01:25+02:00</time>
      </trkpt>
      <trkpt lat="43.59952" lon="2.95351">
        <ele>502</ele>
        <time>2021-03-31T14:01:55+02:00</time>
      </trkpt>
      <trkpt lat="43.59939" lon="2.95323">
        <ele>497</ele>
        <time>2021-03-31T14:02:11+02:00</time>
      </trkpt>
      <trkpt lat="43.59927" lon="2.95296">
        <ele>492</ele>
        <time>2021-03-31T14:02:31+02:00</time>
      </trkpt>
      <trkpt lat="43.59916" lon="2.95267">
        <ele>487</ele>
        <time>2021-03-31T14:03:16+02:00</time>
      </trkpt>
      <trkpt lat="43.59901" lon="2.95244">
        <ele>478</ele>
        <time>2021-03-31T14:04:11+02:00</time>
      </trkpt>
      <trkpt lat="43.5989" lon="2.95217">
        <ele>471</ele>
        <time>2021-03-31T14:04:41+02:00</time>
      </trkpt>
      <trkpt lat="43.59878" lon="2.95189">
        <ele>470</ele>
        <time>2021-03-31T14:05:15+02:00</time>
      </trkpt>
      <trkpt lat="43.59874" lon="2.95159">
        <ele>472</ele>
        <time>2021-03-31T14:05:41+02:00</time>
      </trkpt>
      <trkpt lat="43.59873" lon="2.95127">
        <ele>470</ele>
        <time>2021-03-31T14:06:12+02:00</time>
      </trkpt>
      <trkpt lat="43.59892" lon="2.95106">
        <ele>469</ele>
        <time>2021-03-31T14:06:43+02:00</time>
      </trkpt>
      <trkpt lat="43.59885" lon="2.95076">
        <ele>451</ele>
        <time>2021-03-31T14:07:50+02:00</time>
      </trkpt>
      <trkpt lat="43.59884" lon="2.95045">
        <ele>445</ele>
        <time>2021-03-31T14:08:53+02:00</time>
      </trkpt>
      <trkpt lat="43.59861" lon="2.95045">
        <ele>449</ele>
        <time>2021-03-31T14:09:17+02:00</time>
      </trkpt>
      <trkpt lat="43.5984" lon="2.95032">
        <ele>456</ele>
        <time>2021-03-31T14:09:39+02:00</time>
      </trkpt>
      <trkpt lat="43.59819" lon="2.95016">
        <ele>462</ele>
        <time>2021-03-31T14:09:56+02:00</time>
      </trkpt>
      <trkpt lat="43.59802" lon="2.94994">
        <ele>465</ele>
        <time>2021-03-31T14:10:20+02:00</time>
      </trkpt>
      <trkpt lat="43.59788" lon="2.94969">
        <ele>467</ele>
        <time>2021-03-31T14:10:41+02:00</time>
      </trkpt>
      <trkpt lat="43.59778" lon="2.94941">
        <ele>472</ele>
        <time>2021-03-31T14:11:05+02:00</time>
      </trkpt>
      <trkpt lat="43.5976" lon="2.9492">
        <ele>473</ele>
        <time>2021-03-31T14:11:26+02:00</time>
      </trkpt>
      <trkpt lat="43.59743" lon="2.94899">
        <ele>476</ele>
        <time>2021-03-31T14:11:49+02:00</time>
      </trkpt>
      <trkpt lat="43.59733" lon="2.94871">
        <ele>482</ele>
        <time>2021-03-31T14:12:18+02:00</time>
      </trkpt>
      <trkpt lat="43.59725" lon="2.94842">
        <ele>488</ele>
        <time>2021-03-31T14:12:44+02:00</time>
      </trkpt>
      <trkpt lat="43.59711" lon="2.94817">
        <ele>490</ele>
        <time>2021-03-31T14:13:08+02:00</time>
      </trkpt>
      <trkpt lat="43.59707" lon="2.94787">
        <ele>495</ele>
        <time>2021-03-31T14:13:43+02:00</time>
      </trkpt>
      <trkpt lat="43.597" lon="2.94756">
        <ele>499</ele>
        <time>2021-03-31T14:14:12+02:00</time>
      </trkpt>
      <trkpt lat="43.59699" lon="2.94725">
        <ele>507</ele>
        <time>2021-03-31T14:14:38+02:00</time>
      </trkpt>
      <trkpt lat="43.59691" lon="2.94695">
        <ele>516</ele>
        <time>2021-03-31T14:15:08+02:00</time>
      </trkpt>
      <trkpt lat="43.5968" lon="2.94667">
        <ele>529</ele>
        <time>2021-03-31T14:16:01+02:00</time>
      </trkpt>
      <trkpt lat="43.59687" lon="2.94638">
        <ele>541</ele>
        <time>2021-03-31T14:16:52+02:00</time>
      </trkpt>
      <trkpt lat="43.59666" lon="2.94625">
        <ele>546</ele>
        <time>2021-03-31T14:17:34+02:00</time>
      </trkpt>
      <trkpt lat="43.59644" lon="2.94617">
        <ele>557</ele>
        <time>2021-03-31T14:18:23+02:00</time>
      </trkpt>
      <trkpt lat="43.59629" lon="2.94594">
        <ele>572</ele>
        <time>2021-03-31T14:19:54+02:00</time>
      </trkpt>
      <trkpt lat="43.59606" lon="2.94601">
        <ele>580</ele>
        <time>2021-03-31T14:20:36+02:00</time>
      </trkpt>
      <trkpt lat="43.59606" lon="2.94569">
        <ele>591</ele>
        <time>2021-03-31T14:21:16+02:00</time>
      </trkpt>
      <trkpt lat="43.59613" lon="2.9454">
        <ele>596</ele>
        <time>2021-03-31T14:22:25+02:00</time>
      </trkpt>
      <trkpt lat="43.59621" lon="2.94509">
        <ele>603</ele>
        <time>2021-03-31T14:22:54+02:00</time>
      </trkpt>
      <trkpt lat="43.59604" lon="2.94488">
        <ele>619</ele>
        <time>2021-03-31T14:24:09+02:00</time>
      </trkpt>
      <trkpt lat="43.59602" lon="2.94456">
        <ele>632</ele>
        <time>2021-03-31T14:25:17+02:00</time>
      </trkpt>
      <trkpt lat="43.59604" lon="2.94425">
        <ele>639</ele>
        <time>2021-03-31T14:25:58+02:00</time>
      </trkpt>
      <trkpt lat="43.59601" lon="2.94394">
        <ele>644</ele>
        <time>2021-03-31T14:26:30+02:00</time>
      </trkpt>
      <trkpt lat="43.59593" lon="2.94364">
        <ele>642</ele>
        <time>2021-03-31T14:35:24+02:00</time>
      </trkpt>
      <trkpt lat="43.59577" lon="2.94343">
        <ele>636</ele>
        <time>2021-03-31T14:35:54+02:00</time>
      </trkpt>
      <trkpt lat="43.5956" lon="2.94321">
        <ele>628</ele>
        <time>2021-03-31T14:36:16+02:00</time>
      </trkpt>
      <trkpt lat="43.59545" lon="2.94298">
        <ele>619</ele>
        <time>2021-03-31T14:36:40+02:00</time>
      </trkpt>
      <trkpt lat="43.5953" lon="2.94274">
        <ele>607</ele>
        <time>2021-03-31T14:37:05+02:00</time>
      </trkpt>
      <trkpt lat="43.59512" lon="2.94253">
        <ele>604</ele>
        <time>2021-03-31T14:37:27+02:00</time>
      </trkpt>
      <trkpt lat="43.59498" lon="2.94228">
        <ele>598</ele>
        <time>2021-03-31T14:37:47+02:00</time>
      </trkpt>
      <trkpt lat="43.59484" lon="2.94203">
        <ele>591</ele>
        <time>2021-03-31T14:38:07+02:00</time>
      </trkpt>
      <trkpt lat="43.59474" lon="2.94176">
        <ele>582</ele>
        <time>2021-03-31T14:38:38+02:00</time>
      </trkpt>
      <trkpt lat="43.59485" lon="2.94148">
        <ele>577</ele>
        <time>2021-03-31T14:39:46+02:00</time>
      </trkpt>
      <trkpt lat="43.59484" lon="2.94116">
        <ele>577</ele>
        <time>2021-03-31T14:40:47+02:00</time>
      </trkpt>
      <trkpt lat="43.59477" lon="2.94085">
        <ele>576</ele>
        <time>2021-03-31T14:41:29+02:00</time>
      </trkpt>
      <trkpt lat="43.59473" lon="2.94054">
        <ele>578</ele>
        <time>2021-03-31T14:41:54+02:00</time>
      </trkpt>
      <trkpt lat="43.59466" lon="2.94024">
        <ele>578</ele>
        <time>2021-03-31T14:42:11+02:00</time>
      </trkpt>
      <trkpt lat="43.59461" lon="2.93994">
        <ele>581</ele>
        <time>2021-03-31T14:42:31+02:00</time>
      </trkpt>
      <trkpt lat="43.59464" lon="2.93964">
        <ele>585</ele>
        <time>2021-03-31T14:42:55+02:00</time>
      </trkpt>
      <trkpt lat="43.59465" lon="2.93932">
        <ele>587</ele>
        <time>2021-03-31T14:43:15+02:00</time>
      </trkpt>
      <trkpt lat="43.59474" lon="2.93902">
        <ele>594</ele>
        <time>2021-03-31T14:43:41+02:00</time>
      </trkpt>
      <trkpt lat="43.59486" lon="2.93874">
        <ele>601</ele>
        <time>2021-03-31T14:44:07+02:00</time>
      </trkpt>
      <trkpt lat="43.59484" lon="2.93843">
        <ele>603</ele>
        <time>2021-03-31T14:44:38+02:00</time>
      </trkpt>
      <trkpt lat="43.59478" lon="2.93812">
        <ele>603</ele>
        <time>2021-03-31T14:45:00+02:00</time>
      </trkpt>
      <trkpt lat="43.5947" lon="2.93782">
        <ele>604</ele>
        <time>2021-03-31T14:45:26+02:00</time>
      </trkpt>
      <trkpt lat="43.59469" lon="2.93751">
        <ele>609</ele>
        <time>2021-03-31T14:45:55+02:00</time>
      </trkpt>
      <trkpt lat="43.59457" lon="2.93723">
        <ele>614</ele>
        <time>2021-03-31T14:46:47+02:00</time>
      </trkpt>
      <trkpt lat="43.59436" lon="2.9371">
        <ele>618</ele>
        <time>2021-03-31T14:47:06+02:00</time>
      </trkpt>
      <trkpt lat="43.59436" lon="2.93679">
        <ele>622</ele>
        <time>2021-03-31T14:47:25+02:00</time>
      </trkpt>
      <trkpt lat="43.59453" lon="2.93657">
        <ele>625</ele>
        <time>2021-03-31T14:48:51+02:00</time>
      </trkpt>
      <trkpt lat="43.5947" lon="2.93637">
        <ele>635</ele>
        <time>2021-03-31T14:49:31+02:00</time>
      </trkpt>
      <trkpt lat="43.59493" lon="2.93644">
        <ele>643</ele>
        <time>2021-03-31T14:50:32+02:00</time>
      </trkpt>
      <trkpt lat="43.59514" lon="2.93633">
        <ele>652</ele>
        <time>2021-03-31T14:52:23+02:00</time>
      </trkpt>
      <trkpt lat="43.5952" lon="2.93603">
        <ele>664</ele>
        <time>2021-03-31T14:54:58+02:00</time>
      </trkpt>
      <trkpt lat="43.59537" lon="2.93583">
        <ele>676</ele>
        <time>2021-03-31T14:55:54+02:00</time>
      </trkpt>
      <trkpt lat="43.59557" lon="2.93567">
        <ele>686</ele>
        <time>2021-03-31T14:57:26+02:00</time>
      </trkpt>
      <trkpt lat="43.59577" lon="2.93552">
        <ele>692</ele>
        <time>2021-03-31T14:58:52+02:00</time>
      </trkpt>
      <trkpt lat="43.59599" lon="2.93549">
        <ele>702</ele>
        <time>2021-03-31T15:00:01+02:00</time>
      </trkpt>
      <trkpt lat="43.59621" lon="2.93539">
        <ele>710</ele>
        <time>2021-03-31T15:00:46+02:00</time>
      </trkpt>
      <trkpt lat="43.59639" lon="2.93558">
        <ele>721</ele>
        <time>2021-03-31T15:02:19+02:00</time>
      </trkpt>
      <trkpt lat="43.59662" lon="2.93557">
        <ele>729</ele>
        <time>2021-03-31T15:04:50+02:00</time>
      </trkpt>
      <trkpt lat="43.59685" lon="2.93553">
        <ele>735</ele>
        <time>2021-03-31T15:06:25+02:00</time>
      </trkpt>
      <trkpt lat="43.59707" lon="2.93553">
        <ele>739</ele>
        <time>2021-03-31T15:07:07+02:00</time>
      </trkpt>
      <trkpt lat="43.59728" lon="2.93566">
        <ele>744</ele>
        <time>2021-03-31T15:07:26+02:00</time>
      </trkpt>
      <trkpt lat="43.59746" lon="2.93586">
        <ele>751</ele>
        <time>2021-03-31T15:08:37+02:00</time>
      </trkpt>
      <trkpt lat="43.59768" lon="2.93579">
        <ele>762</ele>
        <time>2021-03-31T15:09:19+02:00</time>
      </trkpt>
      <trkpt lat="43.59791" lon="2.93579">
        <ele>772</ele>
        <time>2021-03-31T15:10:11+02:00</time>
      </trkpt>
      <trkpt lat="43.59813" lon="2.93587">
        <ele>782</ele>
        <time>2021-03-31T15:10:47+02:00</time>
      </trkpt>
      <trkpt lat="43.59836" lon="2.93594">
        <ele>792</ele>
        <time>2021-03-31T15:11:23+02:00</time>
      </trkpt>
      <trkpt lat="43.59858" lon="2.93587">
        <ele>803</ele>
        <time>2021-03-31T15:12:17+02:00</time>
      </trkpt>
      <trkpt lat="43.59879" lon="2.93574">
        <ele>811</ele>
        <time>2021-03-31T15:13:11+02:00</time>
      </trkpt>
      <trkpt lat="43.59902" lon="2.93575">
        <ele>823</ele>
        <time>2021-03-31T15:13:56+02:00</time>
      </trkpt>
      <trkpt lat="43.59924" lon="2.93568">
        <ele>835</ele>
        <time>2021-03-31T15:14:52+02:00</time>
      </trkpt>
      <trkpt lat="43.59942" lon="2.93548">
        <ele>843</ele>
        <time>2021-03-31T15:15:36+02:00</time>
      </trkpt>
      <trkpt lat="43.59963" lon="2.93562">
        <ele>850</ele>
        <time>2021-03-31T15:16:34+02:00</time>
      </trkpt>
      <trkpt lat="43.59984" lon="2.93575">
        <ele>857</ele>
        <time>2021-03-31T15:17:06+02:00</time>
      </trkpt>
      <trkpt lat="43.60003" lon="2.93593">
        <ele>866</ele>
        <time>2021-03-31T15:17:56+02:00</time>
      </trkpt>
      <trkpt lat="43.60025" lon="2.93604">
        <ele>876</ele>
        <time>2021-03-31T15:19:21+02:00</time>
      </trkpt>
      <trkpt lat="43.60047" lon="2.93608">
        <ele>885</ele>
        <time>2021-03-31T15:20:05+02:00</time>
      </trkpt>
      <trkpt lat="43.6007" lon="2.93608">
        <ele>893</ele>
        <time>2021-03-31T15:20:35+02:00</time>
      </trkpt>
      <trkpt lat="43.60092" lon="2.93603">
        <ele>900</ele>
        <time>2021-03-31T15:21:14+02:00</time>
      </trkpt>
      <trkpt lat="43.60115" lon="2.93611">
        <ele>906</ele>
        <time>2021-03-31T15:21:49+02:00</time>
      </trkpt>
      <trkpt lat="43.60135" lon="2.93627">
        <ele>908</ele>
        <time>2021-03-31T15:22:27+02:00</time>
      </trkpt>
      <trkpt lat="43.60157" lon="2.93631">
        <ele>913</ele>
        <time>2021-03-31T15:22:45+02:00</time>
      </trkpt>
      <trkpt lat="43.6018" lon="2.93632">
        <ele>921</ele>
        <time>2021-03-31T15:23:31+02:00</time>
      </trkpt>
      <trkpt lat="43.60202" lon="2.93627">
        <ele>931</ele>
        <time>2021-03-31T15:24:15+02:00</time>
      </trkpt>
      <trkpt lat="43.60223" lon="2.93616">
        <ele>942</ele>
        <time>2021-03-31T15:25:13+02:00</time>
      </trkpt>
      <trkpt lat="43.60243" lon="2.936">
        <ele>951</ele>
        <time>2021-03-31T15:26:07+02:00</time>
      </trkpt>
      <trkpt lat="43.60265" lon="2.93593">
        <ele>960</ele>
        <time>2021-03-31T15:27:03+02:00</time>
      </trkpt>
      <trkpt lat="43.60288" lon="2.93593">
        <ele>966</ele>
        <time>2021-03-31T15:27:43+02:00</time>
      </trkpt>
      <trkpt lat="43.60311" lon="2.93589">
        <ele>973</ele>
        <time>2021-03-31T15:28:21+02:00</time>
      </trkpt>
      <trkpt lat="43.60334" lon="2.93597">
        <ele>977</ele>
        <time>2021-03-31T15:29:09+02:00</time>
      </trkpt>
      <trkpt lat="43.60352" lon="2.93616">
        <ele>979</ele>
        <time>2021-03-31T15:29:42+02:00</time>
      </trkpt>
      <trkpt lat="43.60374" lon="2.93609">
        <ele>989</ele>
        <time>2021-03-31T15:30:18+02:00</time>
      </trkpt>
      <trkpt lat="43.60388" lon="2.93635">
        <ele>986</ele>
        <time>2021-03-31T15:30:47+02:00</time>
      </trkpt>
      <trkpt lat="43.60406" lon="2.93654">
        <ele>988</ele>
        <time>2021-03-31T15:31:14+02:00</time>
      </trkpt>
      <trkpt lat="43.60429" lon="2.93654">
        <ele>997</ele>
        <time>2021-03-31T15:32:03+02:00</time>
      </trkpt>
      <trkpt lat="43.60451" lon="2.93658">
        <ele>1005</ele>
        <time>2021-03-31T15:32:40+02:00</time>
      </trkpt>
      <trkpt lat="43.60473" lon="2.93667">
        <ele>1011</ele>
        <time>2021-03-31T15:33:45+02:00</time>
      </trkpt>
      <trkpt lat="43.60492" lon="2.93685">
        <ele>1014</ele>
        <time>2021-03-31T15:34:27+02:00</time>
      </trkpt>
      <trkpt lat="43.60515" lon="2.9369">
        <ele>1019</ele>
        <time>2021-03-31T15:34:58+02:00</time>
      </trkpt>
      <trkpt lat="43.60537" lon="2.93699">
        <ele>1024</ele>
        <time>2021-03-31T15:35:31+02:00</time>
      </trkpt>
      <trkpt lat="43.6056" lon="2.93702">
        <ele>1033</ele>
        <time>2021-03-31T15:36:09+02:00</time>
      </trkpt>
      <trkpt lat="43.60583" lon="2.93699">
        <ele>1043</ele>
        <time>2021-03-31T15:37:16+02:00</time>
      </trkpt>
      <trkpt lat="43.60586" lon="2.93667">
        <ele>1050</ele>
        <time>2021-03-31T15:37:54+02:00</time>
      </trkpt>
      <trkpt lat="43.60594" lon="2.93637">
        <ele>1054</ele>
        <time>2021-03-31T15:38:54+02:00</time>
      </trkpt>
      <trkpt lat="43.60617" lon="2.93635">
        <ele>1058</ele>
        <time>2021-03-31T15:40:36+02:00</time>
      </trkpt>
      <trkpt lat="43.60632" lon="2.93612">
        <ele>1060</ele>
        <time>2021-03-31T15:46:06+02:00</time>
      </trkpt>
      <trkpt lat="43.60656" lon="2.93609">
        <ele>1062</ele>
        <time>2021-03-31T15:46:37+02:00</time>
      </trkpt>
      <trkpt lat="43.60668" lon="2.93609">
        <ele>1062</ele>
        <time>2021-03-31T15:52:35+02:00</time>
      </trkpt>
      <trkpt lat="43.60691" lon="2.93606">
        <ele>1063</ele>
        <time>2021-03-31T15:52:54+02:00</time>
      </trkpt>
      <trkpt lat="43.60712" lon="2.93597">
        <ele>1064</ele>
        <time>2021-03-31T15:53:08+02:00</time>
      </trkpt>
      <trkpt lat="43.60735" lon="2.93605">
        <ele>1065</ele>
        <time>2021-03-31T15:53:26+02:00</time>
      </trkpt>
      <trkpt lat="43.60741" lon="2.93637">
        <ele>1063</ele>
        <time>2021-03-31T15:53:47+02:00</time>
      </trkpt>
      <trkpt lat="43.60725" lon="2.9366">
        <ele>1061</ele>
        <time>2021-03-31T15:54:30+02:00</time>
      </trkpt>
      <trkpt lat="43.6071" lon="2.93686">
        <ele>1058</ele>
        <time>2021-03-31T15:54:47+02:00</time>
      </trkpt>
      <trkpt lat="43.60694" lon="2.93711">
        <ele>1054</ele>
        <time>2021-03-31T15:55:02+02:00</time>
      </trkpt>
      <trkpt lat="43.60678" lon="2.93733">
        <ele>1050</ele>
        <time>2021-03-31T15:55:15+02:00</time>
      </trkpt>
      <trkpt lat="43.6066" lon="2.93753">
        <ele>1045</ele>
        <time>2021-03-31T15:55:32+02:00</time>
      </trkpt>
      <trkpt lat="43.60637" lon="2.93762">
        <ele>1042</ele>
        <time>2021-03-31T15:55:47+02:00</time>
      </trkpt>
      <trkpt lat="43.60614" lon="2.93759">
        <ele>1036</ele>
        <time>2021-03-31T15:56:15+02:00</time>
      </trkpt>
      <trkpt lat="43.60598" lon="2.93753">
        <ele>1034</ele>
      </trkpt>
      <trkpt lat="43.60602" lon="2.93776">
        <ele>1028</ele>
        <time>2021-03-31T15:56:49+02:00</time>
      </trkpt>
      <trkpt lat="43.60573" lon="2.93756">
        <ele>1024</ele>
        <time>2021-03-31T15:57:04+02:00</time>
      </trkpt>
      <trkpt lat="43.60551" lon="2.93745">
        <ele>1016</ele>
        <time>2021-03-31T15:57:21+02:00</time>
      </trkpt>
      <trkpt lat="43.60522" lon="2.93734">
        <ele>1011</ele>
        <time>2021-03-31T15:57:37+02:00</time>
      </trkpt>
      <trkpt lat="43.60525" lon="2.9375">
        <ele>1007</ele>
      </trkpt>
      <trkpt lat="43.60535" lon="2.93767">
        <ele>1005</ele>
        <time>2021-03-31T15:58:02+02:00</time>
      </trkpt>
      <trkpt lat="43.60552" lon="2.9379">
        <ele>1004</ele>
        <time>2021-03-31T15:58:17+02:00</time>
      </trkpt>
      <trkpt lat="43.60561" lon="2.93819">
        <ele>1001</ele>
        <time>2021-03-31T15:58:30+02:00</time>
      </trkpt>
      <trkpt lat="43.60564" lon="2.9385">
        <ele>996</ele>
        <time>2021-03-31T15:58:46+02:00</time>
      </trkpt>
      <trkpt lat="43.60563" lon="2.93882">
        <ele>990</ele>
        <time>2021-03-31T15:59:04+02:00</time>
      </trkpt>
      <trkpt lat="43.60549" lon="2.93878">
        <ele>988</ele>
      </trkpt>
      <trkpt lat="43.60545" lon="2.93862">
        <ele>989</ele>
        <time>2021-03-31T15:59:22+02:00</time>
      </trkpt>
      <trkpt lat="43.6053" lon="2.93837">
        <ele>986</ele>
        <time>2021-03-31T15:59:37+02:00</time>
      </trkpt>
      <trkpt lat="43.60511" lon="2.93816">
        <ele>983</ele>
        <time>2021-03-31T15:59:50+02:00</time>
      </trkpt>
      <trkpt lat="43.60489" lon="2.93804">
        <ele>978</ele>
        <time>2021-03-31T16:00:03+02:00</time>
      </trkpt>
      <trkpt lat="43.60467" lon="2.93794">
        <ele>974</ele>
        <time>2021-03-31T16:00:18+02:00</time>
      </trkpt>
      <trkpt lat="43.60444" lon="2.93784">
        <ele>969</ele>
        <time>2021-03-31T16:00:32+02:00</time>
      </trkpt>
      <trkpt lat="43.60424" lon="2.93771">
        <ele>966</ele>
        <time>2021-03-31T16:00:46+02:00</time>
      </trkpt>
      <trkpt lat="43.60412" lon="2.93758">
        <ele>965</ele>
      </trkpt>
      <trkpt lat="43.60419" lon="2.93783">
        <ele>960</ele>
      </trkpt>
      <trkpt lat="43.60431" lon="2.93802">
        <ele>959</ele>
        <time>2021-03-31T16:01:22+02:00</time>
      </trkpt>
      <trkpt lat="43.6044" lon="2.93804">
        <ele>960</ele>
      </trkpt>
      <trkpt lat="43.60448" lon="2.93823">
        <ele>957</ele>
        <time>2021-03-31T16:01:34+02:00</time>
      </trkpt>
      <trkpt lat="43.60463" lon="2.93849">
        <ele>954</ele>
        <time>2021-03-31T16:01:48+02:00</time>
      </trkpt>
      <trkpt lat="43.60472" lon="2.93878">
        <ele>952</ele>
        <time>2021-03-31T16:02:01+02:00</time>
      </trkpt>
      <trkpt lat="43.60472" lon="2.9391">
        <ele>948</ele>
        <time>2021-03-31T16:02:14+02:00</time>
      </trkpt>
      <trkpt lat="43.60469" lon="2.93941">
        <ele>945</ele>
        <time>2021-03-31T16:02:29+02:00</time>
      </trkpt>
      <trkpt lat="43.60462" lon="2.93972">
        <ele>940</ele>
        <time>2021-03-31T16:02:43+02:00</time>
      </trkpt>
      <trkpt lat="43.60459" lon="2.94003">
        <ele>939</ele>
        <time>2021-03-31T16:02:57+02:00</time>
      </trkpt>
      <trkpt lat="43.60448" lon="2.94031">
        <ele>934</ele>
        <time>2021-03-31T16:03:09+02:00</time>
      </trkpt>
      <trkpt lat="43.60442" lon="2.94038">
        <ele>931</ele>
      </trkpt>
      <trkpt lat="43.60441" lon="2.94019">
        <ele>931</ele>
      </trkpt>
      <trkpt lat="43.60434" lon="2.94029">
        <ele>927</ele>
      </trkpt>
      <trkpt lat="43.60425" lon="2.94061">
        <ele>926</ele>
        <time>2021-03-31T16:03:43+02:00</time>
      </trkpt>
      <trkpt lat="43.60422" lon="2.94047">
        <ele>923</ele>
      </trkpt>
      <trkpt lat="43.6041" lon="2.94064">
        <ele>920</ele>
      </trkpt>
      <trkpt lat="43.60396" lon="2.9408">
        <ele>918</ele>
        <time>2021-03-31T16:04:07+02:00</time>
      </trkpt>
      <trkpt lat="43.60402" lon="2.94042">
        <ele>915</ele>
        <time>2021-03-31T16:04:33+02:00</time>
      </trkpt>
      <trkpt lat="43.60403" lon="2.93992">
        <ele>912</ele>
        <time>2021-03-31T16:04:48+02:00</time>
      </trkpt>
      <trkpt lat="43.60387" lon="2.94026">
        <ele>907</ele>
        <time>2021-03-31T16:05:12+02:00</time>
      </trkpt>
      <trkpt lat="43.60382" lon="2.94008">
        <ele>903</ele>
      </trkpt>
      <trkpt lat="43.60385" lon="2.93991">
        <ele>902</ele>
        <time>2021-03-31T16:05:24+02:00</time>
      </trkpt>
      <trkpt lat="43.60378" lon="2.93958">
        <ele>897</ele>
        <time>2021-03-31T16:05:37+02:00</time>
      </trkpt>
      <trkpt lat="43.60368" lon="2.93956">
        <ele>892</ele>
      </trkpt>
      <trkpt lat="43.60366" lon="2.93975">
        <ele>892</ele>
        <time>2021-03-31T16:06:07+02:00</time>
      </trkpt>
      <trkpt lat="43.60351" lon="2.94013">
        <ele>888</ele>
        <time>2021-03-31T16:06:21+02:00</time>
      </trkpt>
      <trkpt lat="43.60336" lon="2.94038">
        <ele>885</ele>
        <time>2021-03-31T16:06:34+02:00</time>
      </trkpt>
      <trkpt lat="43.60319" lon="2.9406">
        <ele>882</ele>
        <time>2021-03-31T16:06:52+02:00</time>
      </trkpt>
      <trkpt lat="43.60298" lon="2.94076">
        <ele>876</ele>
      </trkpt>
      <trkpt lat="43.60309" lon="2.94017">
        <ele>871</ele>
        <time>2021-03-31T16:07:30+02:00</time>
      </trkpt>
      <trkpt lat="43.60278" lon="2.94037">
        <ele>864</ele>
        <time>2021-03-31T16:07:53+02:00</time>
      </trkpt>
      <trkpt lat="43.60287" lon="2.94005">
        <ele>862</ele>
        <time>2021-03-31T16:08:17+02:00</time>
      </trkpt>
      <trkpt lat="43.60293" lon="2.93975">
        <ele>858</ele>
        <time>2021-03-31T16:08:42+02:00</time>
      </trkpt>
      <trkpt lat="43.60272" lon="2.93989">
        <ele>853</ele>
        <time>2021-03-31T16:09:50+02:00</time>
      </trkpt>
      <trkpt lat="43.60252" lon="2.94007">
        <ele>849</ele>
        <time>2021-03-31T16:10:04+02:00</time>
      </trkpt>
      <trkpt lat="43.60231" lon="2.94025">
        <ele>844</ele>
        <time>2021-03-31T16:10:14+02:00</time>
      </trkpt>
      <trkpt lat="43.60212" lon="2.94046">
        <ele>844</ele>
        <time>2021-03-31T16:10:22+02:00</time>
      </trkpt>
      <trkpt lat="43.60192" lon="2.94062">
        <ele>841</ele>
        <time>2021-03-31T16:10:32+02:00</time>
      </trkpt>
      <trkpt lat="43.60169" lon="2.94073">
        <ele>839</ele>
        <time>2021-03-31T16:10:44+02:00</time>
      </trkpt>
      <trkpt lat="43.60149" lon="2.94088">
        <ele>837</ele>
        <time>2021-03-31T16:10:59+02:00</time>
      </trkpt>
      <trkpt lat="43.60128" lon="2.94105">
        <ele>833</ele>
        <time>2021-03-31T16:11:19+02:00</time>
      </trkpt>
      <trkpt lat="43.6011" lon="2.94123">
        <ele>828</ele>
        <time>2021-03-31T16:11:36+02:00</time>
      </trkpt>
      <trkpt lat="43.60092" lon="2.94101">
        <ele>822</ele>
        <time>2021-03-31T16:11:58+02:00</time>
      </trkpt>
      <trkpt lat="43.60093" lon="2.94072">
        <ele>818</ele>
      </trkpt>
      <trkpt lat="43.60068" lon="2.94097">
        <ele>815</ele>
        <time>2021-03-31T16:12:34+02:00</time>
      </trkpt>
      <trkpt lat="43.60059" lon="2.94126">
        <ele>814</ele>
        <time>2021-03-31T16:12:49+02:00</time>
      </trkpt>
      <trkpt lat="43.6004" lon="2.94142">
        <ele>805</ele>
        <time>2021-03-31T16:13:16+02:00</time>
      </trkpt>
      <trkpt lat="43.60024" lon="2.94118">
        <ele>801</ele>
        <time>2021-03-31T16:13:40+02:00</time>
      </trkpt>
      <trkpt lat="43.60015" lon="2.94089">
        <ele>798</ele>
        <time>2021-03-31T16:13:56+02:00</time>
      </trkpt>
      <trkpt lat="43.60024" lon="2.94058">
        <ele>796</ele>
        <time>2021-03-31T16:14:13+02:00</time>
      </trkpt>
      <trkpt lat="43.60041" lon="2.94036">
        <ele>793</ele>
        <time>2021-03-31T16:14:29+02:00</time>
      </trkpt>
      <trkpt lat="43.60058" lon="2.94015">
        <ele>789</ele>
        <time>2021-03-31T16:14:44+02:00</time>
      </trkpt>
      <trkpt lat="43.60067" lon="2.93986">
        <ele>784</ele>
        <time>2021-03-31T16:15:03+02:00</time>
      </trkpt>
      <trkpt lat="43.60084" lon="2.93965">
        <ele>784</ele>
        <time>2021-03-31T16:15:21+02:00</time>
      </trkpt>
      <trkpt lat="43.60062" lon="2.93957">
        <ele>775</ele>
        <time>2021-03-31T16:15:40+02:00</time>
      </trkpt>
      <trkpt lat="43.60043" lon="2.93976">
        <ele>774</ele>
        <time>2021-03-31T16:15:59+02:00</time>
      </trkpt>
      <trkpt lat="43.60019" lon="2.93981">
        <ele>767</ele>
        <time>2021-03-31T16:16:15+02:00</time>
      </trkpt>
      <trkpt lat="43.59996" lon="2.93984">
        <ele>759</ele>
        <time>2021-03-31T16:16:32+02:00</time>
      </trkpt>
      <trkpt lat="43.59975" lon="2.93997">
        <ele>757</ele>
        <time>2021-03-31T16:16:51+02:00</time>
      </trkpt>
      <trkpt lat="43.59954" lon="2.94007">
        <ele>751</ele>
        <time>2021-03-31T16:17:08+02:00</time>
      </trkpt>
      <trkpt lat="43.59934" lon="2.94027">
        <ele>749</ele>
        <time>2021-03-31T16:17:23+02:00</time>
      </trkpt>
      <trkpt lat="43.59915" lon="2.94048">
        <ele>746</ele>
        <time>2021-03-31T16:17:40+02:00</time>
      </trkpt>
      <trkpt lat="43.59911" lon="2.94079">
        <ele>747</ele>
        <time>2021-03-31T16:17:56+02:00</time>
      </trkpt>
      <trkpt lat="43.59915" lon="2.94111">
        <ele>748</ele>
        <time>2021-03-31T16:18:11+02:00</time>
      </trkpt>
      <trkpt lat="43.59913" lon="2.94144">
        <ele>744</ele>
        <time>2021-03-31T16:18:27+02:00</time>
      </trkpt>
      <trkpt lat="43.59905" lon="2.94173">
        <ele>740</ele>
        <time>2021-03-31T16:18:41+02:00</time>
      </trkpt>
      <trkpt lat="43.59895" lon="2.94201">
        <ele>737</ele>
        <time>2021-03-31T16:18:55+02:00</time>
      </trkpt>
      <trkpt lat="43.59878" lon="2.94221">
        <ele>733</ele>
        <time>2021-03-31T16:19:13+02:00</time>
      </trkpt>
      <trkpt lat="43.59865" lon="2.94248">
        <ele>732</ele>
        <time>2021-03-31T16:19:35+02:00</time>
      </trkpt>
      <trkpt lat="43.59858" lon="2.94277">
        <ele>727</ele>
        <time>2021-03-31T16:19:52+02:00</time>
      </trkpt>
      <trkpt lat="43.59848" lon="2.9429">
        <ele>721</ele>
      </trkpt>
      <trkpt lat="43.59831" lon="2.94244">
        <ele>710</ele>
        <time>2021-03-31T16:20:34+02:00</time>
      </trkpt>
      <trkpt lat="43.59821" lon="2.94278">
        <ele>709</ele>
        <time>2021-03-31T16:21:03+02:00</time>
      </trkpt>
      <trkpt lat="43.5981" lon="2.94306">
        <ele>705</ele>
        <time>2021-03-31T16:21:18+02:00</time>
      </trkpt>
      <trkpt lat="43.59812" lon="2.94337">
        <ele>701</ele>
        <time>2021-03-31T16:21:37+02:00</time>
      </trkpt>
      <trkpt lat="43.59795" lon="2.94358">
        <ele>690</ele>
        <time>2021-03-31T16:22:25+02:00</time>
      </trkpt>
      <trkpt lat="43.59773" lon="2.94348">
        <ele>687</ele>
        <time>2021-03-31T16:22:45+02:00</time>
      </trkpt>
      <trkpt lat="43.59767" lon="2.94316">
        <ele>683</ele>
        <time>2021-03-31T16:23:03+02:00</time>
      </trkpt>
      <trkpt lat="43.59747" lon="2.94332">
        <ele>677</ele>
        <time>2021-03-31T16:23:22+02:00</time>
      </trkpt>
      <trkpt lat="43.59724" lon="2.94343">
        <ele>671</ele>
        <time>2021-03-31T16:23:39+02:00</time>
      </trkpt>
      <trkpt lat="43.59701" lon="2.94349">
        <ele>666</ele>
        <time>2021-03-31T16:23:59+02:00</time>
      </trkpt>
      <trkpt lat="43.59681" lon="2.9434">
        <ele>660</ele>
      </trkpt>
      <trkpt lat="43.59695" lon="2.94379">
        <ele>664</ele>
        <time>2021-03-31T16:24:34+02:00</time>
      </trkpt>
      <trkpt lat="43.59676" lon="2.9436">
        <ele>661</ele>
      </trkpt>
      <trkpt lat="43.59684" lon="2.94383">
        <ele>660</ele>
        <time>2021-03-31T16:25:08+02:00</time>
      </trkpt>
      <trkpt lat="43.59652" lon="2.94368">
        <ele>654</ele>
        <time>2021-03-31T16:25:27+02:00</time>
      </trkpt>
      <trkpt lat="43.5963" lon="2.9436">
        <ele>649</ele>
        <time>2021-03-31T16:25:48+02:00</time>
      </trkpt>
      <trkpt lat="43.59608" lon="2.94384">
        <ele>643</ele>
        <time>2021-03-31T16:26:08+02:00</time>
      </trkpt>
      <trkpt lat="43.59594" lon="2.94371">
        <ele>643</ele>
        <time>2021-03-31T16:26:43+02:00</time>
      </trkpt>
      <trkpt lat="43.59568" lon="2.94353">
        <ele>638</ele>
        <time>2021-03-31T16:27:02+02:00</time>
      </trkpt>
      <trkpt lat="43.59544" lon="2.94348">
        <ele>637</ele>
        <time>2021-03-31T16:27:14+02:00</time>
      </trkpt>
      <trkpt lat="43.59521" lon="2.94342">
        <ele>636</ele>
        <time>2021-03-31T16:27:28+02:00</time>
      </trkpt>
      <trkpt lat="43.59498" lon="2.94331">
        <ele>634</ele>
        <time>2021-03-31T16:27:43+02:00</time>
      </trkpt>
      <trkpt lat="43.59476" lon="2.94319">
        <ele>636</ele>
        <time>2021-03-31T16:28:00+02:00</time>
      </trkpt>
      <trkpt lat="43.59454" lon="2.94308">
        <ele>638</ele>
        <time>2021-03-31T16:28:16+02:00</time>
      </trkpt>
      <trkpt lat="43.59435" lon="2.94289">
        <ele>635</ele>
        <time>2021-03-31T16:28:31+02:00</time>
      </trkpt>
      <trkpt lat="43.59413" lon="2.94276">
        <ele>634</ele>
        <time>2021-03-31T16:28:47+02:00</time>
      </trkpt>
      <trkpt lat="43.59392" lon="2.94265">
        <ele>632</ele>
        <time>2021-03-31T16:29:02+02:00</time>
      </trkpt>
      <trkpt lat="43.5937" lon="2.94255">
        <ele>633</ele>
        <time>2021-03-31T16:29:17+02:00</time>
      </trkpt>
      <trkpt lat="43.59347" lon="2.94245">
        <ele>633</ele>
        <time>2021-03-31T16:29:31+02:00</time>
      </trkpt>
      <trkpt lat="43.59325" lon="2.94235">
        <ele>634</ele>
        <time>2021-03-31T16:29:46+02:00</time>
      </trkpt>
      <trkpt lat="43.59302" lon="2.94226">
        <ele>637</ele>
        <time>2021-03-31T16:30:04+02:00</time>
      </trkpt>
      <trkpt lat="43.59283" lon="2.94209">
        <ele>638</ele>
        <time>2021-03-31T16:30:18+02:00</time>
      </trkpt>
      <trkpt lat="43.59261" lon="2.942">
        <ele>637</ele>
        <time>2021-03-31T16:30:34+02:00</time>
      </trkpt>
      <trkpt lat="43.59237" lon="2.94202">
        <ele>639</ele>
        <time>2021-03-31T16:30:51+02:00</time>
      </trkpt>
      <trkpt lat="43.59214" lon="2.94207">
        <ele>643</ele>
        <time>2021-03-31T16:31:06+02:00</time>
      </trkpt>
      <trkpt lat="43.59192" lon="2.94213">
        <ele>647</ele>
        <time>2021-03-31T16:31:20+02:00</time>
      </trkpt>
      <trkpt lat="43.59169" lon="2.94215">
        <ele>646</ele>
        <time>2021-03-31T16:31:36+02:00</time>
      </trkpt>
      <trkpt lat="43.59146" lon="2.94219">
        <ele>644</ele>
        <time>2021-03-31T16:31:51+02:00</time>
      </trkpt>
      <trkpt lat="43.59125" lon="2.9423">
        <ele>643</ele>
        <time>2021-03-31T16:32:07+02:00</time>
      </trkpt>
      <trkpt lat="43.59115" lon="2.94259">
        <ele>646</ele>
        <time>2021-03-31T16:32:21+02:00</time>
      </trkpt>
      <trkpt lat="43.59101" lon="2.94285">
        <ele>646</ele>
        <time>2021-03-31T16:32:32+02:00</time>
      </trkpt>
      <trkpt lat="43.59087" lon="2.94313">
        <ele>648</ele>
        <time>2021-03-31T16:32:41+02:00</time>
      </trkpt>
      <trkpt lat="43.59067" lon="2.94331">
        <ele>647</ele>
        <time>2021-03-31T16:32:50+02:00</time>
      </trkpt>
      <trkpt lat="43.59048" lon="2.94348">
        <ele>650</ele>
        <time>2021-03-31T16:33:03+02:00</time>
      </trkpt>
      <trkpt lat="43.59024" lon="2.94347">
        <ele>648</ele>
        <time>2021-03-31T16:33:19+02:00</time>
      </trkpt>
      <trkpt lat="43.58997" lon="2.94353">
        <ele>650</ele>
        <time>2021-03-31T16:33:32+02:00</time>
      </trkpt>
      <trkpt lat="43.58976" lon="2.94365">
        <ele>653</ele>
        <time>2021-03-31T16:33:39+02:00</time>
      </trkpt>
      <trkpt lat="43.58953" lon="2.94369">
        <ele>653</ele>
        <time>2021-03-31T16:33:50+02:00</time>
      </trkpt>
      <trkpt lat="43.5893" lon="2.94369">
        <ele>652</ele>
        <time>2021-03-31T16:34:05+02:00</time>
      </trkpt>
      <trkpt lat="43.58907" lon="2.94373">
        <ele>652</ele>
        <time>2021-03-31T16:34:22+02:00</time>
      </trkpt>
      <trkpt lat="43.58884" lon="2.94378">
        <ele>651</ele>
        <time>2021-03-31T16:34:36+02:00</time>
      </trkpt>
      <trkpt lat="43.58861" lon="2.94384">
        <ele>651</ele>
        <time>2021-03-31T16:34:47+02:00</time>
      </trkpt>
      <trkpt lat="43.58838" lon="2.9439">
        <ele>652</ele>
        <time>2021-03-31T16:35:05+02:00</time>
      </trkpt>
      <trkpt lat="43.58814" lon="2.94387">
        <ele>652</ele>
        <time>2021-03-31T16:35:16+02:00</time>
      </trkpt>
      <trkpt lat="43.5879" lon="2.94389">
        <ele>652</ele>
        <time>2021-03-31T16:35:29+02:00</time>
      </trkpt>
      <trkpt lat="43.58766" lon="2.94397">
        <ele>652</ele>
        <time>2021-03-31T16:35:47+02:00</time>
      </trkpt>
      <trkpt lat="43.58744" lon="2.9441">
        <ele>651</ele>
        <time>2021-03-31T16:36:02+02:00</time>
      </trkpt>
      <trkpt lat="43.58724" lon="2.94424">
        <ele>653</ele>
        <time>2021-03-31T16:36:20+02:00</time>
      </trkpt>
      <trkpt lat="43.58703" lon="2.94438">
        <ele>651</ele>
        <time>2021-03-31T16:36:38+02:00</time>
      </trkpt>
      <trkpt lat="43.58687" lon="2.9446">
        <ele>653</ele>
        <time>2021-03-31T16:36:56+02:00</time>
      </trkpt>
      <trkpt lat="43.5867" lon="2.94483">
        <ele>653</ele>
        <time>2021-03-31T16:37:12+02:00</time>
      </trkpt>
      <trkpt lat="43.58662" lon="2.94512">
        <ele>657</ele>
        <time>2021-03-31T16:37:31+02:00</time>
      </trkpt>
      <trkpt lat="43.58674" lon="2.94538">
        <ele>661</ele>
        <time>2021-03-31T16:37:45+02:00</time>
      </trkpt>
      <trkpt lat="43.58681" lon="2.94571">
        <ele>654</ele>
        <time>2021-03-31T16:38:02+02:00</time>
      </trkpt>
      <trkpt lat="43.58688" lon="2.946">
        <ele>647</ele>
        <time>2021-03-31T16:38:16+02:00</time>
      </trkpt>
      <trkpt lat="43.587" lon="2.94627">
        <ele>644</ele>
        <time>2021-03-31T16:38:30+02:00</time>
      </trkpt>
      <trkpt lat="43.58708" lon="2.94658">
        <ele>639</ele>
        <time>2021-03-31T16:38:43+02:00</time>
      </trkpt>
      <trkpt lat="43.58717" lon="2.94687">
        <ele>636</ele>
        <time>2021-03-31T16:38:57+02:00</time>
      </trkpt>
      <trkpt lat="43.58725" lon="2.94716">
        <ele>630</ele>
        <time>2021-03-31T16:39:11+02:00</time>
      </trkpt>
      <trkpt lat="43.58703" lon="2.9471">
        <ele>628</ele>
        <time>2021-03-31T16:39:39+02:00</time>
      </trkpt>
      <trkpt lat="43.58682" lon="2.94677">
        <ele>626</ele>
        <time>2021-03-31T16:39:56+02:00</time>
      </trkpt>
      <trkpt lat="43.58665" lon="2.94734">
        <ele>614</ele>
        <time>2021-03-31T16:40:22+02:00</time>
      </trkpt>
      <trkpt lat="43.58643" lon="2.94737">
        <ele>605</ele>
        <time>2021-03-31T16:40:39+02:00</time>
      </trkpt>
      <trkpt lat="43.58624" lon="2.94754">
        <ele>601</ele>
        <time>2021-03-31T16:40:56+02:00</time>
      </trkpt>
      <trkpt lat="43.58606" lon="2.94773">
        <ele>602</ele>
        <time>2021-03-31T16:41:12+02:00</time>
      </trkpt>
      <trkpt lat="43.58591" lon="2.94797">
        <ele>603</ele>
        <time>2021-03-31T16:41:30+02:00</time>
      </trkpt>
      <trkpt lat="43.58573" lon="2.94818">
        <ele>600</ele>
        <time>2021-03-31T16:41:46+02:00</time>
      </trkpt>
      <trkpt lat="43.58555" lon="2.94837">
        <ele>599</ele>
        <time>2021-03-31T16:42:01+02:00</time>
      </trkpt>
      <trkpt lat="43.58537" lon="2.94856">
        <ele>598</ele>
        <time>2021-03-31T16:42:12+02:00</time>
      </trkpt>
      <trkpt lat="43.58518" lon="2.94873">
        <ele>600</ele>
        <time>2021-03-31T16:42:29+02:00</time>
      </trkpt>
      <trkpt lat="43.58495" lon="2.94881">
        <ele>598</ele>
        <time>2021-03-31T16:42:45+02:00</time>
      </trkpt>
      <trkpt lat="43.58472" lon="2.94879">
        <ele>588</ele>
        <time>2021-03-31T16:42:59+02:00</time>
      </trkpt>
      <trkpt lat="43.58448" lon="2.94875">
        <ele>576</ele>
        <time>2021-03-31T16:43:13+02:00</time>
      </trkpt>
      <trkpt lat="43.58427" lon="2.94889">
        <ele>575</ele>
        <time>2021-03-31T16:43:27+02:00</time>
      </trkpt>
      <trkpt lat="43.58406" lon="2.94904">
        <ele>576</ele>
        <time>2021-03-31T16:43:46+02:00</time>
      </trkpt>
      <trkpt lat="43.58386" lon="2.9492">
        <ele>577</ele>
        <time>2021-03-31T16:44:04+02:00</time>
      </trkpt>
      <trkpt lat="43.58365" lon="2.94929">
        <ele>574</ele>
        <time>2021-03-31T16:44:19+02:00</time>
      </trkpt>
      <trkpt lat="43.58342" lon="2.94932">
        <ele>569</ele>
        <time>2021-03-31T16:44:34+02:00</time>
      </trkpt>
      <trkpt lat="43.58318" lon="2.94937">
        <ele>568</ele>
        <time>2021-03-31T16:44:50+02:00</time>
      </trkpt>
      <trkpt lat="43.58296" lon="2.94945">
        <ele>571</ele>
        <time>2021-03-31T16:45:01+02:00</time>
      </trkpt>
      <trkpt lat="43.58272" lon="2.94944">
        <ele>568</ele>
        <time>2021-03-31T16:45:14+02:00</time>
      </trkpt>
      <trkpt lat="43.58249" lon="2.94937">
        <ele>563</ele>
        <time>2021-03-31T16:45:30+02:00</time>
      </trkpt>
      <trkpt lat="43.58226" lon="2.94931">
        <ele>562</ele>
        <time>2021-03-31T16:45:44+02:00</time>
      </trkpt>
      <trkpt lat="43.58204" lon="2.94922">
        <ele>559</ele>
        <time>2021-03-31T16:45:59+02:00</time>
      </trkpt>
      <trkpt lat="43.5818" lon="2.94912">
        <ele>559</ele>
        <time>2021-03-31T16:46:15+02:00</time>
      </trkpt>
      <trkpt lat="43.58158" lon="2.94905">
        <ele>559</ele>
        <time>2021-03-31T16:46:30+02:00</time>
      </trkpt>
      <trkpt lat="43.58135" lon="2.94904">
        <ele>558</ele>
        <time>2021-03-31T16:46:50+02:00</time>
      </trkpt>
      <trkpt lat="43.58112" lon="2.94909">
        <ele>556</ele>
        <time>2021-03-31T16:47:07+02:00</time>
      </trkpt>
      <trkpt lat="43.5809" lon="2.94918">
        <ele>551</ele>
        <time>2021-03-31T16:47:23+02:00</time>
      </trkpt>
      <trkpt lat="43.58067" lon="2.94921">
        <ele>546</ele>
        <time>2021-03-31T16:47:37+02:00</time>
      </trkpt>
      <trkpt lat="43.58051" lon="2.94944">
        <ele>546</ele>
        <time>2021-03-31T16:47:58+02:00</time>
      </trkpt>
      <trkpt lat="43.58028" lon="2.94947">
        <ele>542</ele>
        <time>2021-03-31T16:48:24+02:00</time>
      </trkpt>
      <trkpt lat="43.58011" lon="2.94969">
        <ele>539</ele>
        <time>2021-03-31T16:48:40+02:00</time>
      </trkpt>
      <trkpt lat="43.57991" lon="2.94984">
        <ele>534</ele>
        <time>2021-03-31T16:48:57+02:00</time>
      </trkpt>
      <trkpt lat="43.57973" lon="2.95003">
        <ele>529</ele>
        <time>2021-03-31T16:49:12+02:00</time>
      </trkpt>
      <trkpt lat="43.57956" lon="2.95026">
        <ele>527</ele>
        <time>2021-03-31T16:49:32+02:00</time>
      </trkpt>
      <trkpt lat="43.5794" lon="2.95048">
        <ele>526</ele>
        <time>2021-03-31T16:49:45+02:00</time>
      </trkpt>
      <trkpt lat="43.5792" lon="2.95065">
        <ele>523</ele>
        <time>2021-03-31T16:49:59+02:00</time>
      </trkpt>
      <trkpt lat="43.57903" lon="2.95087">
        <ele>519</ele>
        <time>2021-03-31T16:50:16+02:00</time>
      </trkpt>
      <trkpt lat="43.57884" lon="2.95104">
        <ele>514</ele>
        <time>2021-03-31T16:50:32+02:00</time>
      </trkpt>
      <trkpt lat="43.57865" lon="2.95122">
        <ele>509</ele>
        <time>2021-03-31T16:50:50+02:00</time>
      </trkpt>
      <trkpt lat="43.57848" lon="2.95143">
        <ele>506</ele>
        <time>2021-03-31T16:51:05+02:00</time>
      </trkpt>
      <trkpt lat="43.57831" lon="2.95166">
        <ele>502</ele>
        <time>2021-03-31T16:51:20+02:00</time>
      </trkpt>
      <trkpt lat="43.57819" lon="2.95193">
        <ele>502</ele>
        <time>2021-03-31T16:51:36+02:00</time>
      </trkpt>
      <trkpt lat="43.57807" lon="2.9522">
        <ele>500</ele>
        <time>2021-03-31T16:51:51+02:00</time>
      </trkpt>
      <trkpt lat="43.57792" lon="2.95243">
        <ele>498</ele>
        <time>2021-03-31T16:52:07+02:00</time>
      </trkpt>
      <trkpt lat="43.57771" lon="2.95258">
        <ele>492</ele>
        <time>2021-03-31T16:52:22+02:00</time>
      </trkpt>
      <trkpt lat="43.57753" lon="2.95276">
        <ele>489</ele>
        <time>2021-03-31T16:52:41+02:00</time>
      </trkpt>
      <trkpt lat="43.57733" lon="2.95292">
        <ele>485</ele>
        <time>2021-03-31T16:52:57+02:00</time>
      </trkpt>
      <trkpt lat="43.57716" lon="2.95315">
        <ele>482</ele>
        <time>2021-03-31T16:53:13+02:00</time>
      </trkpt>
      <trkpt lat="43.57709" lon="2.95346">
        <ele>479</ele>
        <time>2021-03-31T16:53:36+02:00</time>
      </trkpt>
      <trkpt lat="43.5769" lon="2.95326">
        <ele>473</ele>
        <time>2021-03-31T16:53:53+02:00</time>
      </trkpt>
      <trkpt lat="43.57669" lon="2.95314">
        <ele>463</ele>
        <time>2021-03-31T16:54:20+02:00</time>
      </trkpt>
      <trkpt lat="43.5766" lon="2.95268">
        <ele>455</ele>
        <time>2021-03-31T16:54:43+02:00</time>
      </trkpt>
      <trkpt lat="43.57643" lon="2.95288">
        <ele>453</ele>
        <time>2021-03-31T16:55:25+02:00</time>
      </trkpt>
      <trkpt lat="43.5762" lon="2.95285">
        <ele>446</ele>
        <time>2021-03-31T16:55:49+02:00</time>
      </trkpt>
      <trkpt lat="43.57597" lon="2.95283">
        <ele>439</ele>
        <time>2021-03-31T16:56:24+02:00</time>
      </trkpt>
      <trkpt lat="43.57584" lon="2.95311">
        <ele>436</ele>
        <time>2021-03-31T16:56:43+02:00</time>
      </trkpt>
      <trkpt lat="43.57586" lon="2.95342">
        <ele>430</ele>
        <time>2021-03-31T16:56:57+02:00</time>
      </trkpt>
      <trkpt lat="43.57602" lon="2.95366">
        <ele>429</ele>
        <time>2021-03-31T16:57:15+02:00</time>
      </trkpt>
      <trkpt lat="43.57617" lon="2.95391">
        <ele>426</ele>
        <time>2021-03-31T16:57:33+02:00</time>
      </trkpt>
      <trkpt lat="43.57633" lon="2.95414">
        <ele>424</ele>
        <time>2021-03-31T16:57:52+02:00</time>
      </trkpt>
      <trkpt lat="43.57644" lon="2.95441">
        <ele>421</ele>
        <time>2021-03-31T16:58:08+02:00</time>
      </trkpt>
      <trkpt lat="43.57656" lon="2.95468">
        <ele>419</ele>
        <time>2021-03-31T16:58:23+02:00</time>
      </trkpt>
      <trkpt lat="43.57667" lon="2.95496">
        <ele>413</ele>
        <time>2021-03-31T16:58:41+02:00</time>
      </trkpt>
      <trkpt lat="43.57675" lon="2.95525">
        <ele>415</ele>
        <time>2021-03-31T16:58:59+02:00</time>
      </trkpt>
      <trkpt lat="43.57652" lon="2.95531">
        <ele>405</ele>
        <time>2021-03-31T16:59:22+02:00</time>
      </trkpt>
      <trkpt lat="43.57629" lon="2.9553">
        <ele>396</ele>
        <time>2021-03-31T16:59:37+02:00</time>
      </trkpt>
      <trkpt lat="43.57606" lon="2.95532">
        <ele>389</ele>
        <time>2021-03-31T16:59:54+02:00</time>
      </trkpt>
      <trkpt lat="43.57583" lon="2.95539">
        <ele>386</ele>
        <time>2021-03-31T17:00:11+02:00</time>
      </trkpt>
      <trkpt lat="43.5756" lon="2.95549">
        <ele>382</ele>
        <time>2021-03-31T17:00:30+02:00</time>
      </trkpt>
      <trkpt lat="43.57537" lon="2.95551">
        <ele>374</ele>
        <time>2021-03-31T17:00:51+02:00</time>
      </trkpt>
      <trkpt lat="43.57514" lon="2.9556">
        <ele>371</ele>
        <time>2021-03-31T17:01:09+02:00</time>
      </trkpt>
      <trkpt lat="43.57493" lon="2.95574">
        <ele>370</ele>
        <time>2021-03-31T17:01:24+02:00</time>
      </trkpt>
      <trkpt lat="43.57471" lon="2.95586">
        <ele>368</ele>
        <time>2021-03-31T17:01:55+02:00</time>
      </trkpt>
      <trkpt lat="43.57454" lon="2.95608">
        <ele>371</ele>
        <time>2021-03-31T17:02:11+02:00</time>
      </trkpt>
      <trkpt lat="43.57438" lon="2.95631">
        <ele>370</ele>
        <time>2021-03-31T17:02:26+02:00</time>
      </trkpt>
      <trkpt lat="43.57419" lon="2.9565">
        <ele>364</ele>
        <time>2021-03-31T17:02:48+02:00</time>
      </trkpt>
      <trkpt lat="43.57407" lon="2.95677">
        <ele>360</ele>
        <time>2021-03-31T17:03:06+02:00</time>
      </trkpt>
      <trkpt lat="43.57387" lon="2.95699">
        <ele>349</ele>
      </trkpt>
      <trkpt lat="43.57386" lon="2.95666">
        <ele>348</ele>
        <time>2021-03-31T17:03:40+02:00</time>
      </trkpt>
      <trkpt lat="43.57388" lon="2.95635">
        <ele>347</ele>
        <time>2021-03-31T17:03:54+02:00</time>
      </trkpt>
      <trkpt lat="43.57393" lon="2.95604">
        <ele>344</ele>
        <time>2021-03-31T17:04:13+02:00</time>
      </trkpt>
      <trkpt lat="43.57402" lon="2.95575">
        <ele>340</ele>
        <time>2021-03-31T17:04:28+02:00</time>
      </trkpt>
      <trkpt lat="43.57382" lon="2.95589">
        <ele>336</ele>
        <time>2021-03-31T17:04:45+02:00</time>
      </trkpt>
      <trkpt lat="43.5736" lon="2.95604">
        <ele>330</ele>
        <time>2021-03-31T17:05:04+02:00</time>
      </trkpt>
      <trkpt lat="43.57341" lon="2.9562">
        <ele>323</ele>
        <time>2021-03-31T17:05:31+02:00</time>
      </trkpt>
      <trkpt lat="43.57319" lon="2.95628">
        <ele>312</ele>
        <time>2021-03-31T17:05:57+02:00</time>
      </trkpt>
      <trkpt lat="43.57297" lon="2.95642">
        <ele>303</ele>
        <time>2021-03-31T17:06:30+02:00</time>
      </trkpt>
      <trkpt lat="43.57274" lon="2.9564">
        <ele>294</ele>
        <time>2021-03-31T17:07:09+02:00</time>
      </trkpt>
      <trkpt lat="43.57253" lon="2.95652">
        <ele>286</ele>
        <time>2021-03-31T17:07:32+02:00</time>
      </trkpt>
      <trkpt lat="43.5725" lon="2.95683">
        <ele>283</ele>
        <time>2021-03-31T17:08:08+02:00</time>
      </trkpt>
      <trkpt lat="43.5726" lon="2.95712">
        <ele>285</ele>
        <time>2021-03-31T17:09:14+02:00</time>
      </trkpt>
      <trkpt lat="43.57263" lon="2.95743">
        <ele>284</ele>
        <time>2021-03-31T17:09:36+02:00</time>
      </trkpt>
      <trkpt lat="43.57257" lon="2.95774">
        <ele>279</ele>
        <time>2021-03-31T17:09:55+02:00</time>
      </trkpt>
      <trkpt lat="43.57254" lon="2.95806">
        <ele>275</ele>
        <time>2021-03-31T17:10:07+02:00</time>
      </trkpt>
      <trkpt lat="43.57255" lon="2.95837">
        <ele>273</ele>
        <time>2021-03-31T17:10:21+02:00</time>
      </trkpt>
      <trkpt lat="43.57257" lon="2.95868">
        <ele>272</ele>
        <time>2021-03-31T17:10:34+02:00</time>
      </trkpt>
      <trkpt lat="43.57259" lon="2.95899">
        <ele>271</ele>
        <time>2021-03-31T17:10:48+02:00</time>
      </trkpt>
      <trkpt lat="43.57261" lon="2.95931">
        <ele>270</ele>
        <time>2021-03-31T17:11:04+02:00</time>
      </trkpt>
      <trkpt lat="43.57263" lon="2.95964">
        <ele>269</ele>
        <time>2021-03-31T17:11:20+02:00</time>
      </trkpt>
      <trkpt lat="43.57269" lon="2.95994">
        <ele>270</ele>
        <time>2021-03-31T17:11:35+02:00</time>
      </trkpt>
      <trkpt lat="43.57268" lon="2.96025">
        <ele>269</ele>
        <time>2021-03-31T17:11:51+02:00</time>
      </trkpt>
      <trkpt lat="43.57252" lon="2.96049">
        <ele>264</ele>
        <time>2021-03-31T17:12:23+02:00</time>
      </trkpt>
      <trkpt lat="43.57255" lon="2.96081">
        <ele>263</ele>
        <time>2021-03-31T17:12:40+02:00</time>
      </trkpt>
      <trkpt lat="43.5726" lon="2.96113">
        <ele>264</ele>
        <time>2021-03-31T17:12:57+02:00</time>
      </trkpt>
      <trkpt lat="43.57255" lon="2.96144">
        <ele>260</ele>
        <time>2021-03-31T17:13:09+02:00</time>
      </trkpt>
      <trkpt lat="43.57263" lon="2.96174">
        <ele>260</ele>
        <time>2021-03-31T17:13:22+02:00</time>
      </trkpt>
      <trkpt lat="43.57268" lon="2.96205">
        <ele>260</ele>
        <time>2021-03-31T17:13:36+02:00</time>
      </trkpt>
      <trkpt lat="43.57263" lon="2.96236">
        <ele>258</ele>
        <time>2021-03-31T17:13:51+02:00</time>
      </trkpt>
      <trkpt lat="43.57248" lon="2.9626">
        <ele>251</ele>
        <time>2021-03-31T17:14:15+02:00</time>
      </trkpt>
      <trkpt lat="43.57236" lon="2.96287">
        <ele>247</ele>
        <time>2021-03-31T17:14:34+02:00</time>
      </trkpt>
      <trkpt lat="43.57226" lon="2.96316">
        <ele>244</ele>
        <time>2021-03-31T17:14:54+02:00</time>
      </trkpt>
      <trkpt lat="43.57217" lon="2.96349">
        <ele>239</ele>
        <time>2021-03-31T17:15:11+02:00</time>
      </trkpt>
      <trkpt lat="43.57204" lon="2.96376">
        <ele>234</ele>
        <time>2021-03-31T17:15:28+02:00</time>
      </trkpt>
      <trkpt lat="43.57202" lon="2.96409">
        <ele>232</ele>
        <time>2021-03-31T17:15:44+02:00</time>
      </trkpt>
      <trkpt lat="43.57197" lon="2.9644">
        <ele>230</ele>
        <time>2021-03-31T17:15:59+02:00</time>
      </trkpt>
      <trkpt lat="43.57193" lon="2.96471">
        <ele>227</ele>
        <time>2021-03-31T17:16:15+02:00</time>
      </trkpt>
      <trkpt lat="43.57185" lon="2.96502">
        <ele>222</ele>
        <time>2021-03-31T17:16:33+02:00</time>
      </trkpt>
      <trkpt lat="43.57177" lon="2.96532">
        <ele>218</ele>
        <time>2021-03-31T17:16:47+02:00</time>
      </trkpt>
      <trkpt lat="43.57174" lon="2.96563">
        <ele>215</ele>
        <time>2021-03-31T17:17:23+02:00</time>
      </trkpt>
      <trkpt lat="43.5718" lon="2.96593">
        <ele>212</ele>
        <time>2021-03-31T17:17:49+02:00</time>
      </trkpt>
      <trkpt lat="43.57187" lon="2.96623">
        <ele>208</ele>
        <time>2021-03-31T17:18:21+02:00</time>
      </trkpt>
      <trkpt lat="43.57197" lon="2.96651">
        <ele>203</ele>
        <time>2021-03-31T17:18:46+02:00</time>
      </trkpt>
      <trkpt lat="43.57221" lon="2.96658">
        <ele>202</ele>
        <time>2021-03-31T17:19:03+02:00</time>
      </trkpt>
      <trkpt lat="43.57241" lon="2.96677">
        <ele>198</ele>
        <time>2021-03-31T17:19:18+02:00</time>
      </trkpt>
      <trkpt lat="43.5726" lon="2.96695">
        <ele>196</ele>
        <time>2021-03-31T17:19:33+02:00</time>
      </trkpt>
      <trkpt lat="43.57282" lon="2.96708">
        <ele>196</ele>
        <time>2021-03-31T17:19:48+02:00</time>
      </trkpt>
      <trkpt lat="43.57304" lon="2.96715">
        <ele>198</ele>
        <time>2021-03-31T17:20:04+02:00</time>
      </trkpt>
      <trkpt lat="43.57327" lon="2.96722">
        <ele>197</ele>
        <time>2021-03-31T17:20:21+02:00</time>
      </trkpt>
      <trkpt lat="43.5735" lon="2.96726">
        <ele>196</ele>
        <time>2021-03-31T17:20:35+02:00</time>
      </trkpt>
      <trkpt lat="43.57372" lon="2.96718">
        <ele>197</ele>
        <time>2021-03-31T17:20:52+02:00</time>
      </trkpt>
      <trkpt lat="43.57394" lon="2.96712">
        <ele>196</ele>
        <time>2021-03-31T17:21:09+02:00</time>
      </trkpt>
      <trkpt lat="43.57415" lon="2.96696">
        <ele>199</ele>
        <time>2021-03-31T17:21:26+02:00</time>
      </trkpt>
      <trkpt lat="43.57433" lon="2.96674">
        <ele>204</ele>
        <time>2021-03-31T17:21:41+02:00</time>
      </trkpt>
      <trkpt lat="43.5745" lon="2.96654">
        <ele>207</ele>
        <time>2021-03-31T17:21:57+02:00</time>
      </trkpt>
      <trkpt lat="43.57472" lon="2.96644">
        <ele>205</ele>
        <time>2021-03-31T17:22:12+02:00</time>
      </trkpt>
      <trkpt lat="43.57493" lon="2.96631">
        <ele>206</ele>
        <time>2021-03-31T17:22:26+02:00</time>
      </trkpt>
      <trkpt lat="43.57515" lon="2.96618">
        <ele>211</ele>
        <time>2021-03-31T17:22:43+02:00</time>
      </trkpt>
      <trkpt lat="43.57537" lon="2.96611">
        <ele>211</ele>
        <time>2021-03-31T17:23:01+02:00</time>
      </trkpt>
      <trkpt lat="43.5754" lon="2.96643">
        <ele>193</ele>
        <time>2021-03-31T17:23:28+02:00</time>
      </trkpt>
      <trkpt lat="43.5752" lon="2.96661">
        <ele>192</ele>
        <time>2021-03-31T17:23:49+02:00</time>
      </trkpt>
      <trkpt lat="43.57501" lon="2.96678">
        <ele>191</ele>
        <time>2021-03-31T17:24:08+02:00</time>
      </trkpt>
      <trkpt lat="43.57489" lon="2.96705">
        <ele>193</ele>
        <time>2021-03-31T17:24:29+02:00</time>
      </trkpt>
      <trkpt lat="43.57478" lon="2.96732">
        <ele>196</ele>
        <time>2021-03-31T17:24:46+02:00</time>
      </trkpt>
      <trkpt lat="43.57466" lon="2.96759">
        <ele>200</ele>
        <time>2021-03-31T17:25:08+02:00</time>
      </trkpt>
      <trkpt lat="43.57454" lon="2.96788">
        <ele>204</ele>
        <time>2021-03-31T17:25:31+02:00</time>
      </trkpt>
      <trkpt lat="43.57435" lon="2.96806">
        <ele>199</ele>
        <time>2021-03-31T17:25:48+02:00</time>
      </trkpt>
      <trkpt lat="43.57423" lon="2.96833">
        <ele>201</ele>
        <time>2021-03-31T17:26:06+02:00</time>
      </trkpt>
      <trkpt lat="43.57412" lon="2.9686">
        <ele>203</ele>
        <time>2021-03-31T17:26:25+02:00</time>
      </trkpt>
      <trkpt lat="43.57398" lon="2.96884">
        <ele>203</ele>
        <time>2021-03-31T17:26:39+02:00</time>
      </trkpt>
      <trkpt lat="43.57389" lon="2.96914">
        <ele>212</ele>
        <time>2021-03-31T17:26:56+02:00</time>
      </trkpt>
      <trkpt lat="43.57375" lon="2.9694">
        <ele>211</ele>
        <time>2021-03-31T17:27:15+02:00</time>
      </trkpt>
      <trkpt lat="43.57369" lon="2.96971">
        <ele>216</ele>
        <time>2021-03-31T17:27:34+02:00</time>
      </trkpt>
      <trkpt lat="43.5737" lon="2.97003">
        <ele>222</ele>
        <time>2021-03-31T17:27:54+02:00</time>
      </trkpt>
      <trkpt lat="43.57371" lon="2.97035">
        <ele>226</ele>
        <time>2021-03-31T17:28:12+02:00</time>
      </trkpt>
      <trkpt lat="43.57367" lon="2.97067">
        <ele>232</ele>
        <time>2021-03-31T17:28:37+02:00</time>
      </trkpt>
      <trkpt lat="43.57363" lon="2.97098">
        <ele>237</ele>
        <time>2021-03-31T17:28:52+02:00</time>
      </trkpt>
      <trkpt lat="43.57362" lon="2.9713">
        <ele>239</ele>
        <time>2021-03-31T17:29:07+02:00</time>
      </trkpt>
      <trkpt lat="43.5737" lon="2.97159">
        <ele>243</ele>
        <time>2021-03-31T17:29:32+02:00</time>
      </trkpt>
      <trkpt lat="43.57379" lon="2.97188">
        <ele>248</ele>
        <time>2021-03-31T17:29:47+02:00</time>
      </trkpt>
      <trkpt lat="43.5738" lon="2.9722">
        <ele>247</ele>
        <time>2021-03-31T17:30:02+02:00</time>
      </trkpt>
      <trkpt lat="43.57373" lon="2.97252">
        <ele>241</ele>
        <time>2021-03-31T17:30:25+02:00</time>
      </trkpt>
      <trkpt lat="43.57369" lon="2.97284">
        <ele>237</ele>
        <time>2021-03-31T17:30:43+02:00</time>
      </trkpt>
      <trkpt lat="43.57365" lon="2.97316">
        <ele>234</ele>
        <time>2021-03-31T17:31:14+02:00</time>
      </trkpt>
      <trkpt lat="43.57356" lon="2.97344">
        <ele>229</ele>
        <time>2021-03-31T17:31:30+02:00</time>
      </trkpt>
      <trkpt lat="43.57343" lon="2.97371">
        <ele>225</ele>
        <time>2021-03-31T17:31:52+02:00</time>
      </trkpt>
      <trkpt lat="43.57329" lon="2.97396">
        <ele>224</ele>
        <time>2021-03-31T17:32:07+02:00</time>
      </trkpt>
      <trkpt lat="43.57326" lon="2.97427">
        <ele>225</ele>
        <time>2021-03-31T17:32:21+02:00</time>
      </trkpt>
      <trkpt lat="43.57308" lon="2.97447">
        <ele>223</ele>
        <time>2021-03-31T17:32:44+02:00</time>
      </trkpt>
      <trkpt lat="43.5729" lon="2.97426">
        <ele>221</ele>
        <time>2021-03-31T17:33:03+02:00</time>
      </trkpt>
      <trkpt lat="43.57275" lon="2.9745">
        <ele>224</ele>
        <time>2021-03-31T17:33:32+02:00</time>
      </trkpt>
      <trkpt lat="43.57264" lon="2.97478">
        <ele>226</ele>
        <time>2021-03-31T17:33:47+02:00</time>
      </trkpt>
      <trkpt lat="43.57248" lon="2.97501">
        <ele>227</ele>
        <time>2021-03-31T17:34:01+02:00</time>
      </trkpt>
      <trkpt lat="43.57244" lon="2.97533">
        <ele>229</ele>
        <time>2021-03-31T17:34:18+02:00</time>
      </trkpt>
      <trkpt lat="43.57226" lon="2.97553">
        <ele>228</ele>
        <time>2021-03-31T17:34:49+02:00</time>
      </trkpt>
      <trkpt lat="43.57226" lon="2.97585">
        <ele>233</ele>
        <time>2021-03-31T17:35:16+02:00</time>
      </trkpt>
      <trkpt lat="43.57226" lon="2.97617">
        <ele>236</ele>
        <time>2021-03-31T17:35:33+02:00</time>
      </trkpt>
      <trkpt lat="43.57223" lon="2.9765">
        <ele>238</ele>
        <time>2021-03-31T17:35:52+02:00</time>
      </trkpt>
      <trkpt lat="43.57219" lon="2.97681">
        <ele>234</ele>
        <time>2021-03-31T17:36:06+02:00</time>
      </trkpt>
      <trkpt lat="43.57216" lon="2.97713">
        <ele>229</ele>
        <time>2021-03-31T17:36:23+02:00</time>
      </trkpt>
      <trkpt lat="43.57219" lon="2.97745">
        <ele>226</ele>
        <time>2021-03-31T17:36:37+02:00</time>
      </trkpt>
      <trkpt lat="43.57227" lon="2.97775">
        <ele>225</ele>
        <time>2021-03-31T17:36:53+02:00</time>
      </trkpt>
      <trkpt lat="43.57237" lon="2.97803">
        <ele>224</ele>
        <time>2021-03-31T17:37:07+02:00</time>
      </trkpt>
      <trkpt lat="43.57246" lon="2.97833">
        <ele>224</ele>
        <time>2021-03-31T17:37:21+02:00</time>
      </trkpt>
      <trkpt lat="43.57254" lon="2.97862">
        <ele>222</ele>
        <time>2021-03-31T17:37:44+02:00</time>
      </trkpt>
      <trkpt lat="43.57259" lon="2.97893">
        <ele>220</ele>
        <time>2021-03-31T17:38:00+02:00</time>
      </trkpt>
      <trkpt lat="43.57262" lon="2.97926">
        <ele>219</ele>
        <time>2021-03-31T17:38:20+02:00</time>
      </trkpt>
      <trkpt lat="43.57282" lon="2.97945">
        <ele>222</ele>
        <time>2021-03-31T17:38:34+02:00</time>
      </trkpt>
      <trkpt lat="43.573" lon="2.97968">
        <ele>226</ele>
        <time>2021-03-31T17:38:51+02:00</time>
      </trkpt>
      <trkpt lat="43.57313" lon="2.97995">
        <ele>228</ele>
        <time>2021-03-31T17:39:10+02:00</time>
      </trkpt>
      <trkpt lat="43.57328" lon="2.98019">
        <ele>229</ele>
        <time>2021-03-31T17:39:31+02:00</time>
      </trkpt>
      <trkpt lat="43.57349" lon="2.98028">
        <ele>232</ele>
        <time>2021-03-31T17:39:47+02:00</time>
      </trkpt>
      <trkpt lat="43.57372" lon="2.98033">
        <ele>236</ele>
        <time>2021-03-31T17:40:10+02:00</time>
      </trkpt>
      <trkpt lat="43.57397" lon="2.98061">
        <ele>237</ele>
        <time>2021-03-31T17:40:26+02:00</time>
      </trkpt>
      <trkpt lat="43.57365" lon="2.98081">
        <ele>232</ele>
        <time>2021-03-31T17:40:43+02:00</time>
      </trkpt>
      <trkpt lat="43.57349" lon="2.98103">
        <ele>233</ele>
        <time>2021-03-31T17:40:57+02:00</time>
      </trkpt>
      <trkpt lat="43.57341" lon="2.98133">
        <ele>236</ele>
        <time>2021-03-31T17:41:15+02:00</time>
      </trkpt>
      <trkpt lat="43.57336" lon="2.98165">
        <ele>239</ele>
        <time>2021-03-31T17:41:34+02:00</time>
      </trkpt>
      <trkpt lat="43.57329" lon="2.98196">
        <ele>241</ele>
        <time>2021-03-31T17:41:49+02:00</time>
      </trkpt>
      <trkpt lat="43.57325" lon="2.98227">
        <ele>242</ele>
        <time>2021-03-31T17:42:06+02:00</time>
      </trkpt>
      <trkpt lat="43.57322" lon="2.9826">
        <ele>242</ele>
        <time>2021-03-31T17:42:23+02:00</time>
      </trkpt>
      <trkpt lat="43.57327" lon="2.98291">
        <ele>245</ele>
        <time>2021-03-31T17:42:39+02:00</time>
      </trkpt>
      <trkpt lat="43.57332" lon="2.98323">
        <ele>248</ele>
        <time>2021-03-31T17:42:54+02:00</time>
      </trkpt>
      <trkpt lat="43.57335" lon="2.98356">
        <ele>247</ele>
        <time>2021-03-31T17:43:07+02:00</time>
      </trkpt>
      <trkpt lat="43.57334" lon="2.98387">
        <ele>246</ele>
        <time>2021-03-31T17:43:20+02:00</time>
      </trkpt>
      <trkpt lat="43.57324" lon="2.98418">
        <ele>245</ele>
        <time>2021-03-31T17:43:35+02:00</time>
      </trkpt>
      <trkpt lat="43.57315" lon="2.98446">
        <ele>247</ele>
        <time>2021-03-31T17:43:50+02:00</time>
      </trkpt>
      <trkpt lat="43.57303" lon="2.98473">
        <ele>248</ele>
        <time>2021-03-31T17:44:04+02:00</time>
      </trkpt>
      <trkpt lat="43.57289" lon="2.98499">
        <ele>248</ele>
        <time>2021-03-31T17:44:16+02:00</time>
      </trkpt>
      <trkpt lat="43.57274" lon="2.98526">
        <ele>250</ele>
        <time>2021-03-31T17:44:29+02:00</time>
      </trkpt>
      <trkpt lat="43.5726" lon="2.98553">
        <ele>252</ele>
        <time>2021-03-31T17:44:39+02:00</time>
      </trkpt>
      <trkpt lat="43.57253" lon="2.98576">
        <ele>255</ele>
        <time>2021-03-31T17:44:56+02:00</time>
      </trkpt>
      <trkpt lat="43.57227" lon="2.98592">
        <ele>254</ele>
        <time>2021-03-31T17:45:09+02:00</time>
      </trkpt>
      <trkpt lat="43.57204" lon="2.98588">
        <ele>252</ele>
        <time>2021-03-31T17:45:24+02:00</time>
      </trkpt>
    </trkseg>
  </trk>
</gpx>